Observation data for Earth on 01/18/2019      Previous  Date  Next       Current Mesonet Observations  Soil Data  Daily Summary Page  Observations in Plain Language
KEA1 180600Z 20017KT 08/M01 A30 RMK A01 T00831013  RH  051%=      5-min Rain = 0
KEA1 180601Z 20017KT 08/M01 A30 RMK A01 T00821013  RH  051%=      5-min Rain = 0
KEA1 180602Z 20018KT 08/M01 A30 RMK A01 T00821012  RH  051%=      5-min Rain = 0
KEA1 180603Z 21017KT 08/M01 A30 RMK A01 T00821012  RH  051%=      5-min Rain = 0
KEA1 180604Z 20018KT 08/M01 A30 RMK A01 T00821012  RH  052%=      5-min Rain = 0
KEA1 180605Z 20018KT 08/M01 A2999 RMK A01 T00821012  RH  051%=      5-min Rain = 0
KEA1 180606Z 20018KT 08/M01 A2999 RMK A01 T00831012  RH  051%=      5-min Rain = 0
KEA1 180607Z 20018KT 08/M01 A2999 RMK A01 T00831012  RH  051%=      5-min Rain = 0
KEA1 180608Z 20017KT 08/M01 A2999 RMK A01 T00831012  RH  051%=      5-min Rain = 0
KEA1 180609Z 20016KT 08/M01 A2999 RMK A01 T00821012  RH  052%=      5-min Rain = 0
KEA1 180610Z 20015KT 08/M01 A2999 RMK A01 T00801012  RH  052%=      5-min Rain = 0
KEA1 180611Z 20016KT 08/M01 A2999 RMK A01 T00791012  RH  053%=      5-min Rain = 0
KEA1 180612Z 20017G22KT 08/M01 A2999 RMK A01 T00781012  RH  053%=      5-min Rain = 0
KEA1 180613Z 20017KT 08/M01 A2999 RMK A01 T00781012  RH  053%=      5-min Rain = 0
KEA1 180614Z 20016KT 08/M01 A2999 RMK A01 T00781012  RH  053%=      5-min Rain = 0
KEA1 180615Z 20015KT 08/M01 A2999 RMK A01 T00781012  RH  053%=      5-min Rain = 0
KEA1 180616Z 20017KT 08/M01 A2999 RMK A01 T00771012  RH  053%=      5-min Rain = 0
KEA1 180617Z 20016KT 08/M01 A2999 RMK A01 T00771012  RH  053%=      5-min Rain = 0
KEA1 180618Z 20016KT 08/M01 A2999 RMK A01 T00771012  RH  054%=      5-min Rain = 0
KEA1 180619Z 20015KT 08/M01 A2999 RMK A01 T00761012  RH  054%=      5-min Rain = 0
KEA1 180620Z 20016KT 08/M01 A2999 RMK A01 T00771011  RH  053%=      5-min Rain = 0
KEA1 180621Z 20016KT 08/M01 A2999 RMK A01 T00771012  RH  054%=      5-min Rain = 0
KEA1 180622Z 20016KT 08/M01 A2999 RMK A01 T00761011  RH  054%=      5-min Rain = 0
KEA1 180623Z 20014KT 08/M01 A2999 RMK A01 T00771011  RH  054%=      5-min Rain = 0
KEA1 180624Z 20016KT 08/M01 A2999 RMK A01 T00771011  RH  054%=      5-min Rain = 0
KEA1 180625Z 20015G20KT 08/M01 A2999 RMK A01 T00771011  RH  054%=      5-min Rain = 0
KEA1 180626Z 20015KT 08/M01 A2999 RMK A01 T00771010  RH  054%=      5-min Rain = 0
KEA1 180627Z 20016KT 08/M01 A2999 RMK A01 T00781010  RH  054%=      5-min Rain = 0
KEA1 180628Z 20017KT 08/M01 A2999 RMK A01 T00781010  RH  054%=      5-min Rain = 0
KEA1 180629Z 20017KT 08/M01 A2999 RMK A01 T00781010  RH  053%=      5-min Rain = 0
KEA1 180630Z 20017KT 08/M01 A2999 RMK A01 T00791010  RH  053%=      5-min Rain = 0
KEA1 180631Z 20015KT 08/M01 A2999 RMK A01 T00791010  RH  053%=      5-min Rain = 0
KEA1 180632Z 20015KT 08/M01 A2999 RMK A01 T00791010  RH  053%=      5-min Rain = 0
KEA1 180633Z 20017KT 08/M01 A2999 RMK A01 T00781010  RH  054%=      5-min Rain = 0
KEA1 180634Z 20016KT 08/M01 A2999 RMK A01 T00771010  RH  054%=      5-min Rain = 0
KEA1 180635Z 20015KT 08/M01 A2999 RMK A01 T00781010  RH  054%=      5-min Rain = 0
KEA1 180636Z 20014KT 08/M01 A2999 RMK A01 T00781010  RH  054%=      5-min Rain = 0
KEA1 180637Z 20015KT 08/M01 A2999 RMK A01 T00771011  RH  054%=      5-min Rain = 0
KEA1 180638Z 20014KT 08/M01 A2999 RMK A01 T00771011  RH  054%=      5-min Rain = 0
KEA1 180639Z 20014KT 08/M01 A2999 RMK A01 T00761011  RH  054%=      5-min Rain = 0
KEA1 180640Z 21015KT 08/M01 A2999 RMK A01 T00761010  RH  054%=      5-min Rain = 0
KEA1 180641Z 21016KT 08/M01 A2999 RMK A01 T00771010  RH  054%=      5-min Rain = 0
KEA1 180642Z 21014KT 08/M01 A2999 RMK A01 T00771011  RH  054%=      5-min Rain = 0
KEA1 180643Z 20015KT 08/M01 A2999 RMK A01 T00761011  RH  054%=      5-min Rain = 0
KEA1 180644Z 20014G19KT 08/M01 A2999 RMK A01 T00751011  RH  054%=      5-min Rain = 0
KEA1 180645Z 21014KT 08/M01 A2999 RMK A01 T00751011  RH  054%=      5-min Rain = 0
KEA1 180646Z 21015KT 08/M01 A2999 RMK A01 T00751011  RH  055%=      5-min Rain = 0
KEA1 180647Z 21016G21KT 08/M01 A2999 RMK A01 T00751011  RH  055%=      5-min Rain = 0
KEA1 180648Z 21016KT 08/M01 A2999 RMK A01 T00761010  RH  054%=      5-min Rain = 0
KEA1 180649Z 21015KT 08/M01 A2999 RMK A01 T00771011  RH  054%=      5-min Rain = 0
KEA1 180650Z 21015KT 08/M01 A2998 RMK A01 T00771011  RH  054%=      5-min Rain = 0
KEA1 180651Z 21015KT 08/M01 A2998 RMK A01 T00771011  RH  054%=      5-min Rain = 0
KEA1 180652Z 21016G22KT 08/M01 A2998 RMK A01 T00771011  RH  053%=      5-min Rain = 0
KEA1 180653Z 21017G22KT 08/M01 A2998 RMK A01 T00811011  RH  052%=      5-min Rain = 0
KEA1 180654Z 21016KT 08/M01 A2998 RMK A01 T00831012  RH  051%=      5-min Rain = 0
KEA1 180655Z 21015KT 08/M01 A2998 RMK A01 T00821013  RH  051%=      5-min Rain = 0
KEA1 180656Z 21015G20KT 08/M01 A2998 RMK A01 T00801013  RH  052%=      5-min Rain = 0
KEA1 180657Z 21015KT 08/M01 A2998 RMK A01 T00811012  RH  052%=      5-min Rain = 0
KEA1 180658Z 21016KT 08/M01 A2998 RMK A01 T00811013  RH  052%=      5-min Rain = 0
KEA1 180659Z 21015KT 08/M01 A2998 RMK A01 T00801013  RH  052%=      5-min Rain = 0
KEA1 180700Z 21016G21KT 08/M01 A2998 RMK A01 T00781013  RH  052%=      5-min Rain = 0
KEA1 180701Z 21016KT 08/M01 A2998 RMK A01 T00791013  RH  052%=      5-min Rain = 0
KEA1 180702Z 21015KT 08/M01 A2998 RMK A01 T00811013  RH  052%=      5-min Rain = 0
KEA1 180703Z 21014KT 08/M01 A2998 RMK A01 T00781014  RH  052%=      5-min Rain = 0
KEA1 180704Z 21014KT 08/M01 A2998 RMK A01 T00751014  RH  053%=      5-min Rain = 0
KEA1 180705Z 21015KT 07/M01 A2998 RMK A01 T00741014  RH  054%=      5-min Rain = 0
KEA1 180706Z 21014KT 07/M01 A2998 RMK A01 T00741014  RH  054%=      5-min Rain = 0
KEA1 180707Z 22011KT 08/M01 A2999 RMK A01 T00761013  RH  053%=      5-min Rain = 0
KEA1 180708Z 24010KT 08/M01 A2999 RMK A01 T00771013  RH  053%=      5-min Rain = 0
KEA1 180709Z 25012G18KT 08/M01 A2999 RMK A01 T00771009  RH  055%=      5-min Rain = 0
KEA1 180710Z 25009KT 08/M01 A2999 RMK A01 T00751007  RH  056%=      5-min Rain = 0
KEA1 180711Z 25011KT 07/M01 A2999 RMK A01 T00691012  RH  056%=      5-min Rain = 0
KEA1 180712Z 25010KT 07/M01 A2999 RMK A01 T00661013  RH  057%=      5-min Rain = 0
KEA1 180713Z 23010KT 06/M01 A2998 RMK A01 T00631013  RH  058%=      5-min Rain = 0
KEA1 180714Z 23011KT 06/M01 A2998 RMK A01 T00601014  RH  059%=      5-min Rain = 0
KEA1 180715Z 23013KT 06/M01 A2998 RMK A01 T00601013  RH  060%=      5-min Rain = 0
KEA1 180716Z 22012KT 06/M01 A2998 RMK A01 T00621011  RH  060%=      5-min Rain = 0
KEA1 180717Z 22013KT 06/M01 A2998 RMK A01 T00621011  RH  059%=      5-min Rain = 0
KEA1 180718Z 22011KT 06/M01 A2998 RMK A01 T00641009  RH  060%=      5-min Rain = 0
KEA1 180719Z 23010KT 06/M01 A2998 RMK A01 T00641007  RH  060%=      5-min Rain = 0
KEA1 180720Z 22010KT 07/M01 A2998 RMK A01 T00651006  RH  061%=      5-min Rain = 0
KEA1 180721Z 22009KT 07/M01 A2998 RMK A01 T00671006  RH  060%=      5-min Rain = 0
KEA1 180722Z 22009KT 07/M01 A2998 RMK A01 T00681009  RH  058%=      5-min Rain = 0
KEA1 180723Z 21010KT 07/M01 A2997 RMK A01 T00701012  RH  056%=      5-min Rain = 0
KEA1 180724Z 21010KT 07/M02 A2997 RMK A01 T00701015  RH  055%=      5-min Rain = 0
KEA1 180725Z 21011KT 07/M02 A2997 RMK A01 T00691017  RH  054%=      5-min Rain = 0
KEA1 180726Z 20012KT 07/M02 A2997 RMK A01 T00661018  RH  055%=      5-min Rain = 0
KEA1 180727Z 21012KT 07/M02 A2997 RMK A01 T00661018  RH  055%=      5-min Rain = 0
KEA1 180728Z 20013KT 07/M02 A2997 RMK A01 T00661018  RH  055%=      5-min Rain = 0
KEA1 180729Z 21012KT 06/M02 A2997 RMK A01 T00641019  RH  056%=      5-min Rain = 0
KEA1 180730Z 20013KT 06/M02 A2996 RMK A01 T00621019  RH  056%=      5-min Rain = 0
KEA1 180731Z 20012KT 06/M02 A2996 RMK A01 T00611019  RH  056%=      5-min Rain = 0
KEA1 180732Z 20013KT 06/M02 A2996 RMK A01 T00611019  RH  057%=      5-min Rain = 0
KEA1 180733Z 20013KT 06/M02 A2996 RMK A01 T00611019  RH  057%=      5-min Rain = 0
KEA1 180734Z 20015KT 06/M02 A2996 RMK A01 T00611019  RH  056%=      5-min Rain = 0
KEA1 180735Z 20013KT 06/M02 A2996 RMK A01 T00601019  RH  057%=      5-min Rain = 0
KEA1 180736Z 20014KT 06/M02 A2996 RMK A01 T00581021  RH  057%=      5-min Rain = 0
KEA1 180737Z 20014KT 06/M02 A2995 RMK A01 T00581020  RH  057%=      5-min Rain = 0
KEA1 180738Z 20015KT 06/M02 A2995 RMK A01 T00591020  RH  057%=      5-min Rain = 0
KEA1 180739Z 21015KT 06/M02 A2995 RMK A01 T00601019  RH  057%=      5-min Rain = 0
KEA1 180740Z 21014KT 06/M02 A2995 RMK A01 T00631019  RH  056%=      5-min Rain = 0
KEA1 180741Z 21012KT 06/M02 A2996 RMK A01 T00641019  RH  055%=      5-min Rain = 0
KEA1 180742Z 21014KT 07/M02 A2995 RMK A01 T00681018  RH  054%=      5-min Rain = 0
KEA1 180743Z 21013KT 08/M02 A2995 RMK A01 T00761016  RH  052%=      5-min Rain = 0
KEA1 180744Z 21011KT 08/M02 A2995 RMK A01 T00791017  RH  050%=      5-min Rain = 0
KEA1 180745Z 22014KT 08/M02 A2995 RMK A01 T00821018  RH  049%=      5-min Rain = 0
KEA1 180746Z 21013KT 09/M02 A2995 RMK A01 T00861017  RH  048%=      5-min Rain = 0
KEA1 180747Z 21013KT 09/M02 A2995 RMK A01 T00871019  RH  047%=      5-min Rain = 0
KEA1 180748Z 21014KT 09/M02 A2995 RMK A01 T00871019  RH  047%=      5-min Rain = 0
KEA1 180749Z 21013KT 09/M02 A2995 RMK A01 T00871019  RH  047%=      5-min Rain = 0
KEA1 180750Z 21014KT 08/M02 A2995 RMK A01 T00831021  RH  048%=      5-min Rain = 0
KEA1 180751Z 21015KT 08/M02 A2995 RMK A01 T00791021  RH  049%=      5-min Rain = 0
KEA1 180752Z 21014KT 08/M02 A2995 RMK A01 T00821020  RH  049%=      5-min Rain = 0
KEA1 180753Z 21013KT 09/M02 A2995 RMK A01 T00851020  RH  048%=      5-min Rain = 0
KEA1 180754Z 21014G21KT 08/M02 A2995 RMK A01 T00841021  RH  048%=      5-min Rain = 0
KEA1 180755Z 21016KT 09/M02 A2995 RMK A01 T00851020  RH  048%=      5-min Rain = 0
KEA1 180756Z 21015KT 09/M02 A2995 RMK A01 T00901019  RH  046%=      5-min Rain = 0
KEA1 180757Z 21013G18KT 09/M02 A2995 RMK A01 T00921020  RH  045%=      5-min Rain = 0
KEA1 180758Z 21015KT 09/M02 A2995 RMK A01 T00901022  RH  045%=      5-min Rain = 0
KEA1 180759Z 21015KT 09/M02 A2994 RMK A01 T00861023  RH  046%=      5-min Rain = 0
KEA1 180800Z 21014KT 08/M02 A2994 RMK A01 T00821023  RH  047%=      5-min Rain = 0
KEA1 180801Z 21014G19KT 08/M02 A2994 RMK A01 T00791024  RH  048%=      5-min Rain = 0
KEA1 180802Z 21016G21KT 08/M02 A2994 RMK A01 T00781023  RH  049%=      5-min Rain = 0
KEA1 180803Z 21015G22KT 08/M02 A2994 RMK A01 T00831021  RH  048%=      5-min Rain = 0
KEA1 180804Z 21015KT 09/M02 A2994 RMK A01 T00871021  RH  047%=      5-min Rain = 0
KEA1 180805Z 21013G19KT 09/M02 A2994 RMK A01 T00881022  RH  046%=      5-min Rain = 0
KEA1 180806Z 22013KT 09/M02 A2994 RMK A01 T00861023  RH  046%=      5-min Rain = 0
KEA1 180807Z 21016KT 09/M02 A2994 RMK A01 T00871022  RH  046%=      5-min Rain = 0
KEA1 180808Z 21013KT 09/M02 A2994 RMK A01 T00891022  RH  046%=      5-min Rain = 0
KEA1 180809Z 21013G18KT 09/M02 A2994 RMK A01 T00891023  RH  045%=      5-min Rain = 0
KEA1 180810Z 22015KT 09/M02 A2994 RMK A01 T00881023  RH  046%=      5-min Rain = 0
KEA1 180811Z 22014KT 09/M02 A2994 RMK A01 T00901022  RH  045%=      5-min Rain = 0
KEA1 180812Z 21014KT 09/M02 A2994 RMK A01 T00891023  RH  045%=      5-min Rain = 0
KEA1 180813Z 21013KT 09/M02 A2994 RMK A01 T00871024  RH  046%=      5-min Rain = 0
KEA1 180814Z 21013KT 08/M03 A2994 RMK A01 T00821025  RH  047%=      5-min Rain = 0
KEA1 180815Z 21013KT 08/M02 A2994 RMK A01 T00811024  RH  048%=      5-min Rain = 0
KEA1 180816Z 21013KT 08/M02 A2994 RMK A01 T00821023  RH  047%=      5-min Rain = 0
KEA1 180817Z 21013G18KT 08/M03 A2994 RMK A01 T00811025  RH  047%=      5-min Rain = 0
KEA1 180818Z 21014KT 08/M02 A2994 RMK A01 T00801024  RH  048%=      5-min Rain = 0
KEA1 180819Z 21013KT 08/M02 A2994 RMK A01 T00811024  RH  047%=      5-min Rain = 0
KEA1 180820Z 22013KT 08/M03 A2994 RMK A01 T00801025  RH  047%=      5-min Rain = 0
KEA1 180821Z 22012KT 08/M03 A2994 RMK A01 T00771025  RH  048%=      5-min Rain = 0
KEA1 180822Z 22010KT 08/M02 A2994 RMK A01 T00771023  RH  049%=      5-min Rain = 0
KEA1 180823Z 23017KT 08/M02 A2994 RMK A01 T00801019  RH  050%=      5-min Rain = 0
KEA1 180824Z 23016KT 08/M01 A2994 RMK A01 T00791014  RH  052%=      5-min Rain = 0
KEA1 180825Z 24013KT 08/M01 A2995 RMK A01 T00761012  RH  054%=      5-min Rain = 0
KEA1 180826Z 23013KT 07/M01 A2994 RMK A01 T00711013  RH  055%=      5-min Rain = 0
KEA1 180827Z 23011KT 07/M02 A2994 RMK A01 T00671015  RH  055%=      5-min Rain = 0
KEA1 180828Z 24012KT 06/M02 A2994 RMK A01 T00641018  RH  056%=      5-min Rain = 0
KEA1 180829Z 24012KT 06/M02 A2994 RMK A01 T00611018  RH  057%=      5-min Rain = 0
KEA1 180830Z 23013KT 06/M02 A2994 RMK A01 T00601017  RH  058%=      5-min Rain = 0
KEA1 180831Z 24011KT 06/M02 A2994 RMK A01 T00601017  RH  058%=      5-min Rain = 0
KEA1 180832Z 24011KT 06/M02 A2995 RMK A01 T00591021  RH  056%=      5-min Rain = 0
KEA1 180833Z 24012KT 06/M02 A2995 RMK A01 T00551024  RH  057%=      5-min Rain = 0
KEA1 180834Z 24012KT 05/M02 A2995 RMK A01 T00541024  RH  057%=      5-min Rain = 0
KEA1 180835Z 23011KT 05/M03 A2995 RMK A01 T00531025  RH  057%=      5-min Rain = 0
KEA1 180836Z 23013KT 05/M02 A2994 RMK A01 T00531022  RH  059%=      5-min Rain = 0
KEA1 180837Z 23011KT 06/M02 A2994 RMK A01 T00561017  RH  059%=      5-min Rain = 0
KEA1 180838Z 22013KT 06/M02 A2994 RMK A01 T00581015  RH  059%=      5-min Rain = 0
KEA1 180839Z 23013KT 06/M01 A2994 RMK A01 T00621011  RH  060%=      5-min Rain = 0
KEA1 180840Z 23013KT 07/M01 A2994 RMK A01 T00651009  RH  059%=      5-min Rain = 0
KEA1 180841Z 23013KT 07/M01 A2994 RMK A01 T00671010  RH  058%=      5-min Rain = 0
KEA1 180842Z 23014KT 07/M01 A2994 RMK A01 T00691014  RH  055%=      5-min Rain = 0
KEA1 180843Z 23015KT 07/M02 A2994 RMK A01 T00721015  RH  054%=      5-min Rain = 0
KEA1 180844Z 23013KT 07/M01 A2994 RMK A01 T00731014  RH  054%=      5-min Rain = 0
KEA1 180845Z 23011KT 07/M01 A2994 RMK A01 T00721010  RH  056%=      5-min Rain = 0
KEA1 180846Z 24011KT 07/M01 A2994 RMK A01 T00711009  RH  057%=      5-min Rain = 0
KEA1 180847Z 23011KT 07/M01 A2994 RMK A01 T00701008  RH  057%=      5-min Rain = 0
KEA1 180848Z 23010KT 07/M01 A2994 RMK A01 T00701009  RH  057%=      5-min Rain = 0
KEA1 180849Z 23011KT 07/M01 A2994 RMK A01 T00701009  RH  057%=      5-min Rain = 0
KEA1 180850Z 23009KT 07/M01 A2994 RMK A01 T00691009  RH  057%=      5-min Rain = 0
KEA1 180851Z 23010KT 07/M01 A2994 RMK A01 T00671010  RH  058%=      5-min Rain = 0
KEA1 180852Z 23010KT 07/M01 A2994 RMK A01 T00661010  RH  058%=      5-min Rain = 0
KEA1 180853Z 23010KT 07/M01 A2994 RMK A01 T00661009  RH  059%=      5-min Rain = 0
KEA1 180854Z 23010KT 07/M01 A2994 RMK A01 T00661010  RH  058%=      5-min Rain = 0
KEA1 180855Z 23012KT 07/M01 A2994 RMK A01 T00661010  RH  058%=      5-min Rain = 0
KEA1 180856Z 23011KT 07/M01 A2994 RMK A01 T00661010  RH  058%=      5-min Rain = 0
KEA1 180857Z 23013KT 07/M01 A2994 RMK A01 T00661012  RH  058%=      5-min Rain = 0
KEA1 180858Z 23011KT 07/M01 A2994 RMK A01 T00671011  RH  057%=      5-min Rain = 0
KEA1 180859Z 23008KT 07/M01 A2994 RMK A01 T00661011  RH  058%=      5-min Rain = 0
KEA1 180900Z 23009KT 06/M01 A2994 RMK A01 T00641010  RH  059%=      5-min Rain = 0
KEA1 180901Z 23010KT 06/M01 A2994 RMK A01 T00611009  RH  061%=      5-min Rain = 0
KEA1 180902Z 23010G16KT 06/M01 A2994 RMK A01 T00601009  RH  061%=      5-min Rain = 0
KEA1 180903Z 23011KT 06/M01 A2994 RMK A01 T00601009  RH  061%=      5-min Rain = 0
KEA1 180904Z 24010KT 06/M01 A2994 RMK A01 T00601010  RH  061%=      5-min Rain = 0
KEA1 180905Z 23011KT 06/M01 A2994 RMK A01 T00591011  RH  061%=      5-min Rain = 0
KEA1 180906Z 23011G16KT 06/M01 A2994 RMK A01 T00581012  RH  061%=      5-min Rain = 0
KEA1 180907Z 23011KT 06/M01 A2994 RMK A01 T00581012  RH  061%=      5-min Rain = 0
KEA1 180908Z 24010KT 06/M01 A2994 RMK A01 T00591013  RH  060%=      5-min Rain = 0
KEA1 180909Z 23009KT 06/M01 A2994 RMK A01 T00581014  RH  060%=      5-min Rain = 0
KEA1 180910Z 23010KT 06/M02 A2994 RMK A01 T00551015  RH  061%=      5-min Rain = 0
KEA1 180911Z 24009KT 06/M02 A2994 RMK A01 T00551015  RH  060%=      5-min Rain = 0
KEA1 180912Z 24010KT 06/M02 A2995 RMK A01 T00551018  RH  059%=      5-min Rain = 0
KEA1 180913Z 24012KT 05/M02 A2994 RMK A01 T00531021  RH  059%=      5-min Rain = 0
KEA1 180914Z 24011KT 05/M02 A2994 RMK A01 T00511024  RH  058%=      5-min Rain = 0
KEA1 180915Z 24010KT 05/M03 A2994 RMK A01 T00501026  RH  058%=      5-min Rain = 0
KEA1 180916Z 23010KT 05/M03 A2994 RMK A01 T00491026  RH  058%=      5-min Rain = 0
KEA1 180917Z 23010KT 05/M03 A2994 RMK A01 T00481026  RH  059%=      5-min Rain = 0
KEA1 180918Z 23011KT 05/M03 A2994 RMK A01 T00491025  RH  059%=      5-min Rain = 0
KEA1 180919Z 23010KT 05/M03 A2994 RMK A01 T00491025  RH  059%=      5-min Rain = 0
KEA1 180920Z 24010KT 05/M02 A2994 RMK A01 T00491024  RH  059%=      5-min Rain = 0
KEA1 180921Z 24010KT 05/M02 A2994 RMK A01 T00481024  RH  059%=      5-min Rain = 0
KEA1 180922Z 23011KT 05/M02 A2993 RMK A01 T00491023  RH  060%=      5-min Rain = 0
KEA1 180923Z 23011KT 05/M02 A2993 RMK A01 T00511023  RH  059%=      5-min Rain = 0
KEA1 180924Z 23011KT 05/M02 A2993 RMK A01 T00511023  RH  059%=      5-min Rain = 0
KEA1 180925Z 23009KT 05/M02 A2993 RMK A01 T00521021  RH  059%=      5-min Rain = 0
KEA1 180926Z 23010KT 05/M02 A2993 RMK A01 T00521020  RH  060%=      5-min Rain = 0
KEA1 180927Z 23010KT 05/M02 A2993 RMK A01 T00521019  RH  060%=      5-min Rain = 0
KEA1 180928Z 23012KT 05/M02 A2993 RMK A01 T00531017  RH  060%=      5-min Rain = 0
KEA1 180929Z 23011KT 06/M02 A2993 RMK A01 T00551015  RH  061%=      5-min Rain = 0
KEA1 180930Z 24010KT 06/M01 A2993 RMK A01 T00571014  RH  060%=      5-min Rain = 0
KEA1 180931Z 24010KT 06/M02 A2993 RMK A01 T00571016  RH  060%=      5-min Rain = 0
KEA1 180932Z 24010KT 06/M02 A2993 RMK A01 T00571017  RH  059%=      5-min Rain = 0
KEA1 180933Z 23012KT 06/M02 A2993 RMK A01 T00561018  RH  059%=      5-min Rain = 0
KEA1 180934Z 23011KT 06/M02 A2993 RMK A01 T00571017  RH  059%=      5-min Rain = 0
KEA1 180935Z 23012KT 06/M02 A2993 RMK A01 T00581016  RH  059%=      5-min Rain = 0
KEA1 180936Z 23012KT 06/M02 A2993 RMK A01 T00591015  RH  059%=      5-min Rain = 0
KEA1 180937Z 23013KT 06/M01 A2993 RMK A01 T00601013  RH  059%=      5-min Rain = 0
KEA1 180938Z 23012KT 06/M01 A2993 RMK A01 T00621011  RH  059%=      5-min Rain = 0
KEA1 180939Z 23010KT 06/M01 A2993 RMK A01 T00641009  RH  060%=      5-min Rain = 0
KEA1 180940Z 23012KT 06/M01 A2993 RMK A01 T00641010  RH  059%=      5-min Rain = 0
KEA1 180941Z 23011KT 07/M01 A2992 RMK A01 T00651010  RH  059%=      5-min Rain = 0
KEA1 180942Z 23010KT 07/M01 A2992 RMK A01 T00661009  RH  059%=      5-min Rain = 0
KEA1 180943Z 23010KT 07/M01 A2992 RMK A01 T00661010  RH  058%=      5-min Rain = 0
KEA1 180944Z 23012KT 07/M01 A2992 RMK A01 T00671009  RH  058%=      5-min Rain = 0
KEA1 180945Z 23011KT 07/M01 A2992 RMK A01 T00681009  RH  058%=      5-min Rain = 0
KEA1 180946Z 23013KT 07/M01 A2992 RMK A01 T00691010  RH  057%=      5-min Rain = 0
KEA1 180947Z 23013KT 07/M01 A2992 RMK A01 T00701010  RH  057%=      5-min Rain = 0
KEA1 180948Z 23013KT 07/M01 A2992 RMK A01 T00721010  RH  056%=      5-min Rain = 0
KEA1 180949Z 23014KT 07/M01 A2992 RMK A01 T00741011  RH  055%=      5-min Rain = 0
KEA1 180950Z 23013KT 08/M01 A2992 RMK A01 T00751011  RH  055%=      5-min Rain = 0
KEA1 180951Z 23015KT 08/M01 A2992 RMK A01 T00751011  RH  055%=      5-min Rain = 0
KEA1 180952Z 23014KT 08/M01 A2992 RMK A01 T00751011  RH  055%=      5-min Rain = 0
KEA1 180953Z 23015KT 08/M01 A2992 RMK A01 T00751010  RH  055%=      5-min Rain = 0
KEA1 180954Z 22013KT 08/M01 A2992 RMK A01 T00751011  RH  054%=      5-min Rain = 0
KEA1 180955Z 23014KT 08/M01 A2992 RMK A01 T00751011  RH  054%=      5-min Rain = 0
KEA1 180956Z 23013KT 08/M01 A2992 RMK A01 T00771013  RH  053%=      5-min Rain = 0
KEA1 180957Z 23013KT 08/M01 A2992 RMK A01 T00771012  RH  053%=      5-min Rain = 0
KEA1 180958Z 23013KT 08/M01 A2992 RMK A01 T00761011  RH  054%=      5-min Rain = 0
KEA1 180959Z 22011KT 08/M01 A2992 RMK A01 T00751010  RH  055%=      5-min Rain = 0
KEA1 181000Z 23011KT 08/M01 A2992 RMK A01 T00751010  RH  055%=      5-min Rain = 0
KEA1 181001Z 22010KT 07/M01 A2992 RMK A01 T00741010  RH  055%=      5-min Rain = 0
KEA1 181002Z 23011KT 07/M01 A2992 RMK A01 T00741011  RH  055%=      5-min Rain = 0
KEA1 181003Z 23011KT 07/M01 A2992 RMK A01 T00731011  RH  055%=      5-min Rain = 0
KEA1 181004Z 23011KT 07/M01 A2992 RMK A01 T00731011  RH  055%=      5-min Rain = 0
KEA1 181005Z 23014G19KT 07/M01 A2992 RMK A01 T00731012  RH  054%=      5-min Rain = 0
KEA1 181006Z 23013KT 07/M01 A2992 RMK A01 T00741012  RH  054%=      5-min Rain = 0
KEA1 181007Z 23014G20KT 07/M01 A2992 RMK A01 T00741012  RH  054%=      5-min Rain = 0
KEA1 181008Z 23016KT 07/M01 A2991 RMK A01 T00741012  RH  054%=      5-min Rain = 0
KEA1 181009Z 23016KT 08/M01 A2991 RMK A01 T00751012  RH  054%=      5-min Rain = 0
KEA1 181010Z 23012KT 08/M01 A2991 RMK A01 T00751011  RH  054%=      5-min Rain = 0
KEA1 181011Z 23012KT 07/M01 A2991 RMK A01 T00721009  RH  056%=      5-min Rain = 0
KEA1 181012Z 22013KT 07/M01 A2991 RMK A01 T00701008  RH  057%=      5-min Rain = 0
KEA1 181013Z 22014KT 07/M01 A2991 RMK A01 T00701009  RH  057%=      5-min Rain = 0
KEA1 181014Z 22010KT 07/M01 A2991 RMK A01 T00721009  RH  056%=      5-min Rain = 0
KEA1 181015Z 21011KT 07/M01 A2991 RMK A01 T00721014  RH  054%=      5-min Rain = 0
KEA1 181016Z 21011KT 07/M02 A2991 RMK A01 T00721017  RH  053%=      5-min Rain = 0
KEA1 181017Z 21013KT 07/M02 A2991 RMK A01 T00721019  RH  053%=      5-min Rain = 0
KEA1 181018Z 21014KT 07/M02 A2991 RMK A01 T00711020  RH  052%=      5-min Rain = 0
KEA1 181019Z 21015KT 07/M02 A299 RMK A01 T00701021  RH  052%=      5-min Rain = 0
KEA1 181020Z 21015KT 07/M02 A299 RMK A01 T00701021  RH  052%=      5-min Rain = 0
KEA1 181021Z 21016KT 07/M02 A299 RMK A01 T00731020  RH  052%=      5-min Rain = 0
KEA1 181022Z 21015KT 07/M02 A299 RMK A01 T00741020  RH  051%=      5-min Rain = 0
KEA1 181023Z 21017KT 07/M02 A299 RMK A01 T00741021  RH  051%=      5-min Rain = 0
KEA1 181024Z 21016G22KT 07/M02 A299 RMK A01 T00731021  RH  051%=      5-min Rain = 0
KEA1 181025Z 20016G21KT 07/M02 A2989 RMK A01 T00721021  RH  052%=      5-min Rain = 0
KEA1 181026Z 20015KT 07/M02 A2989 RMK A01 T00701022  RH  052%=      5-min Rain = 0
KEA1 181027Z 21014KT 07/M02 A2989 RMK A01 T00671022  RH  053%=      5-min Rain = 0
KEA1 181028Z 21014KT 06/M02 A2989 RMK A01 T00641022  RH  054%=      5-min Rain = 0
KEA1 181029Z 20016KT 06/M02 A2989 RMK A01 T00631022  RH  054%=      5-min Rain = 0
KEA1 181030Z 20014KT 07/M02 A2989 RMK A01 T00651020  RH  054%=      5-min Rain = 0
KEA1 181031Z 20015KT 07/M02 A2989 RMK A01 T00651021  RH  054%=      5-min Rain = 0
KEA1 181032Z 20015KT 06/M02 A2989 RMK A01 T00641021  RH  055%=      5-min Rain = 0
KEA1 181033Z 20016G21KT 06/M02 A2989 RMK A01 T00621021  RH  055%=      5-min Rain = 0
KEA1 181034Z 21015KT 06/M02 A2989 RMK A01 T00621021  RH  055%=      5-min Rain = 0
KEA1 181035Z 20015KT 06/M02 A2989 RMK A01 T00621021  RH  055%=      5-min Rain = 0
KEA1 181036Z 20014KT 06/M02 A2989 RMK A01 T00611021  RH  056%=      5-min Rain = 0
KEA1 181037Z 20016G21KT 06/M02 A2989 RMK A01 T00591022  RH  056%=      5-min Rain = 0
KEA1 181038Z 21016KT 06/M02 A2989 RMK A01 T00601021  RH  056%=      5-min Rain = 0
KEA1 181039Z 21016G23KT 06/M02 A2989 RMK A01 T00641019  RH  055%=      5-min Rain = 0
KEA1 181040Z 21017KT 07/M02 A2989 RMK A01 T00661019  RH  054%=      5-min Rain = 0
KEA1 181041Z 21016KT 07/M02 A2989 RMK A01 T00701019  RH  053%=      5-min Rain = 0
KEA1 181042Z 21017KT 07/M02 A2988 RMK A01 T00701020  RH  053%=      5-min Rain = 0
KEA1 181043Z 21017KT 07/M02 A2988 RMK A01 T00691020  RH  053%=      5-min Rain = 0
KEA1 181044Z 21016KT 07/M02 A2988 RMK A01 T00721019  RH  053%=      5-min Rain = 0
KEA1 181045Z 21013G19KT 07/M02 A2988 RMK A01 T00701021  RH  052%=      5-min Rain = 0
KEA1 181046Z 21016KT 07/M02 A2988 RMK A01 T00681021  RH  053%=      5-min Rain = 0
KEA1 181047Z 21016KT 07/M02 A2988 RMK A01 T00691020  RH  053%=      5-min Rain = 0
KEA1 181048Z 21015G20KT 07/M02 A2988 RMK A01 T00691020  RH  053%=      5-min Rain = 0
KEA1 181049Z 21016KT 07/M02 A2988 RMK A01 T00701020  RH  053%=      5-min Rain = 0
KEA1 181050Z 21016KT 07/M02 A2988 RMK A01 T00701020  RH  053%=      5-min Rain = 0
KEA1 181051Z 21016KT 07/M02 A2988 RMK A01 T00721019  RH  052%=      5-min Rain = 0
KEA1 181052Z 21015KT 07/M02 A2988 RMK A01 T00711020  RH  052%=      5-min Rain = 0
KEA1 181053Z 20013KT 07/M02 A2987 RMK A01 T00701021  RH  053%=      5-min Rain = 0
KEA1 181054Z 20015KT 07/M02 A2987 RMK A01 T00671022  RH  053%=      5-min Rain = 0
KEA1 181055Z 20014KT 06/M02 A2987 RMK A01 T00641022  RH  054%=      5-min Rain = 0
KEA1 181056Z 21015G20KT 06/M02 A2987 RMK A01 T00621022  RH  055%=      5-min Rain = 0
KEA1 181057Z 20014KT 06/M02 A2987 RMK A01 T00611021  RH  055%=      5-min Rain = 0
KEA1 181058Z 20016KT 06/M02 A2987 RMK A01 T00601022  RH  056%=      5-min Rain = 0
KEA1 181059Z 20015KT 06/M02 A2987 RMK A01 T00601021  RH  056%=      5-min Rain = 0
KEA1 181100Z 20015KT 06/M02 A2987 RMK A01 T00611020  RH  056%=      5-min Rain = 0
KEA1 181101Z 20013KT 06/M02 A2987 RMK A01 T00601021  RH  056%=      5-min Rain = 0
KEA1 181102Z 20014KT 06/M02 A2986 RMK A01 T00591021  RH  056%=      5-min Rain = 0
KEA1 181103Z 20013KT 06/M02 A2986 RMK A01 T00591021  RH  057%=      5-min Rain = 0
KEA1 181104Z 20014KT 06/M02 A2986 RMK A01 T00571021  RH  057%=      5-min Rain = 0
KEA1 181105Z 21013KT 06/M02 A2987 RMK A01 T00561021  RH  057%=      5-min Rain = 0
KEA1 181106Z 21014KT 06/M02 A2987 RMK A01 T00561021  RH  058%=      5-min Rain = 0
KEA1 181107Z 20014KT 06/M02 A2987 RMK A01 T00581019  RH  057%=      5-min Rain = 0
KEA1 181108Z 20014KT 06/M02 A2986 RMK A01 T00591020  RH  057%=      5-min Rain = 0
KEA1 181109Z 19014KT 06/M02 A2986 RMK A01 T00601020  RH  057%=      5-min Rain = 0
KEA1 181110Z 19012KT 06/M02 A2985 RMK A01 T00591020  RH  057%=      5-min Rain = 0
KEA1 181111Z 19013KT 06/M02 A2985 RMK A01 T00561021  RH  058%=      5-min Rain = 0
KEA1 181112Z 20012KT 05/M02 A2985 RMK A01 T00541021  RH  058%=      5-min Rain = 0
KEA1 181113Z 20012KT 05/M02 A2985 RMK A01 T00531021  RH  059%=      5-min Rain = 0
KEA1 181114Z 21012KT 05/M02 A2985 RMK A01 T00531020  RH  059%=      5-min Rain = 0
KEA1 181115Z 20013KT 05/M02 A2985 RMK A01 T00521020  RH  060%=      5-min Rain = 0
KEA1 181116Z 21016KT 05/M02 A2986 RMK A01 T00541019  RH  059%=      5-min Rain = 0
KEA1 181117Z 21015KT 06/M02 A2986 RMK A01 T00571018  RH  058%=      5-min Rain = 0
KEA1 181118Z 21016KT 06/M02 A2986 RMK A01 T00621016  RH  057%=      5-min Rain = 0
KEA1 181119Z 21016KT 07/M02 A2986 RMK A01 T00681015  RH  055%=      5-min Rain = 0
KEA1 181120Z 21014KT 07/M02 A2986 RMK A01 T00711016  RH  054%=      5-min Rain = 0
KEA1 181121Z 21015KT 07/M02 A2986 RMK A01 T00701017  RH  054%=      5-min Rain = 0
KEA1 181122Z 21015KT 07/M02 A2986 RMK A01 T00701017  RH  054%=      5-min Rain = 0
KEA1 181123Z 21015KT 07/M02 A2985 RMK A01 T00711017  RH  054%=      5-min Rain = 0
KEA1 181124Z 21015KT 07/M02 A2985 RMK A01 T00711017  RH  053%=      5-min Rain = 0
KEA1 181125Z 21015KT 07/M02 A2985 RMK A01 T00711017  RH  053%=      5-min Rain = 0
KEA1 181126Z 21015KT 07/M02 A2985 RMK A01 T00691018  RH  054%=      5-min Rain = 0
KEA1 181127Z 21013KT 07/M02 A2985 RMK A01 T00671018  RH  054%=      5-min Rain = 0
KEA1 181128Z 20014KT 07/M02 A2985 RMK A01 T00661018  RH  055%=      5-min Rain = 0
KEA1 181129Z 21015KT 07/M02 A2985 RMK A01 T00651018  RH  055%=      5-min Rain = 0
KEA1 181130Z 21016G21KT 07/M02 A2985 RMK A01 T00651018  RH  056%=      5-min Rain = 0
KEA1 181131Z 21016G21KT 07/M02 A2985 RMK A01 T00651018  RH  056%=      5-min Rain = 0
KEA1 181132Z 21016KT 07/M02 A2985 RMK A01 T00681016  RH  055%=      5-min Rain = 0
KEA1 181133Z 21015KT 07/M02 A2985 RMK A01 T00691017  RH  055%=      5-min Rain = 0
KEA1 181134Z 21017KT 07/M02 A2985 RMK A01 T00681017  RH  055%=      5-min Rain = 0
KEA1 181135Z 21015KT 07/M02 A2985 RMK A01 T00701016  RH  054%=      5-min Rain = 0
KEA1 181136Z 21015KT 07/M02 A2985 RMK A01 T00711016  RH  054%=      5-min Rain = 0
KEA1 181137Z 21016KT 07/M02 A2985 RMK A01 T00721016  RH  054%=      5-min Rain = 0
KEA1 181138Z 21014KT 07/M02 A2985 RMK A01 T00721016  RH  053%=      5-min Rain = 0
KEA1 181139Z 21017KT 07/M02 A2985 RMK A01 T00731016  RH  053%=      5-min Rain = 0
KEA1 181140Z 21015KT 07/M02 A2985 RMK A01 T00741016  RH  053%=      5-min Rain = 0
KEA1 181141Z 21015KT 07/M02 A2984 RMK A01 T00731016  RH  053%=      5-min Rain = 0
KEA1 181142Z 21014KT 07/M02 A2984 RMK A01 T00731015  RH  053%=      5-min Rain = 0
KEA1 181143Z 21013KT 07/M02 A2984 RMK A01 T00721016  RH  053%=      5-min Rain = 0
KEA1 181144Z 21014KT 07/M02 A2984 RMK A01 T00711016  RH  054%=      5-min Rain = 0
KEA1 181145Z 21015G20KT 07/M02 A2984 RMK A01 T00711016  RH  054%=      5-min Rain = 0
KEA1 181146Z 22014KT 07/M02 A2984 RMK A01 T00711017  RH  054%=      5-min Rain = 0
KEA1 181147Z 22012KT 07/M02 A2985 RMK A01 T00711016  RH  054%=      5-min Rain = 0
KEA1 181148Z 23012KT 07/M02 A2985 RMK A01 T00701015  RH  055%=      5-min Rain = 0
KEA1 181149Z 22011KT 07/M01 A2985 RMK A01 T00681011  RH  057%=      5-min Rain = 0
KEA1 181150Z 23012KT 07/M01 A2985 RMK A01 T00671013  RH  057%=      5-min Rain = 0
KEA1 181151Z 23013KT 07/M01 A2985 RMK A01 T00671012  RH  057%=      5-min Rain = 0
KEA1 181152Z 22014KT 07/M01 A2985 RMK A01 T00671012  RH  057%=      5-min Rain = 0
KEA1 181153Z 23016KT 07/M01 A2985 RMK A01 T00671011  RH  058%=      5-min Rain = 0
KEA1 181154Z 23014KT 07/M01 A2985 RMK A01 T00661011  RH  058%=      5-min Rain = 0
KEA1 181155Z 22014KT 07/M01 A2985 RMK A01 T00661009  RH  058%=      5-min Rain = 0
KEA1 181156Z 22015KT 07/M01 A2984 RMK A01 T00661007  RH  059%=      5-min Rain = 0
KEA1 181157Z 22013KT 07/M01 A2985 RMK A01 T00671007  RH  059%=      5-min Rain = 0
KEA1 181158Z 22015G20KT 07/M01 A2985 RMK A01 T00671007  RH  059%=      5-min Rain = 0
KEA1 181159Z 22015KT 07/M01 A2985 RMK A01 T00681007  RH  059%=      5-min Rain = 0
KEA1 181200Z 22016KT 07/M01 A2984 RMK A01 T00681009  RH  058%=      5-min Rain = 0
KEA1 181201Z 22018KT 07/M01 A2985 RMK A01 T00691009  RH  057%=      5-min Rain = 0
KEA1 181202Z 22014KT 07/M01 A2984 RMK A01 T00701009  RH  057%=      5-min Rain = 0
KEA1 181203Z 23012KT 07/M01 A2984 RMK A01 T00701008  RH  058%=      5-min Rain = 0
KEA1 181204Z 23012KT 07/M01 A2984 RMK A01 T00701008  RH  057%=      5-min Rain = 0
KEA1 181205Z 23011KT 07/M01 A2984 RMK A01 T00711006  RH  058%=      5-min Rain = 0
KEA1 181206Z 23010KT 07/M01 A2984 RMK A01 T00711005  RH  058%=      5-min Rain = 0
KEA1 181207Z 23010KT 07/M01 A2984 RMK A01 T00711005  RH  058%=      5-min Rain = 0
KEA1 181208Z 22010KT 07/M01 A2984 RMK A01 T00701005  RH  058%=      5-min Rain = 0
KEA1 181209Z 22014KT 07/M01 A2984 RMK A01 T00721005  RH  058%=      5-min Rain = 0
KEA1 181210Z 22013KT 08/M01 A2984 RMK A01 T00751009  RH  055%=      5-min Rain = 0
KEA1 181211Z 22012KT 08/M01 A2984 RMK A01 T00761011  RH  054%=      5-min Rain = 0
KEA1 181212Z 22011KT 08/M01 A2983 RMK A01 T00761013  RH  053%=      5-min Rain = 0
KEA1 181213Z 22016KT 08/M02 A2983 RMK A01 T00751015  RH  053%=      5-min Rain = 0
KEA1 181214Z 22015KT 08/M01 A2983 RMK A01 T00761013  RH  054%=      5-min Rain = 0
KEA1 181215Z 22017KT 08/M01 A2983 RMK A01 T00771012  RH  054%=      5-min Rain = 0
KEA1 181216Z 22015KT 08/M01 A2983 RMK A01 T00791011  RH  053%=      5-min Rain = 0
KEA1 181217Z 22014G19KT 08/M01 A2983 RMK A01 T00811011  RH  052%=      5-min Rain = 0
KEA1 181218Z 22012KT 08/M01 A2983 RMK A01 T00831012  RH  051%=      5-min Rain = 0
KEA1 181219Z 23012KT 08/M01 A2983 RMK A01 T00841014  RH  050%=      5-min Rain = 0
KEA1 181220Z 22012KT 09/M02 A2983 RMK A01 T00851015  RH  049%=      5-min Rain = 0
KEA1 181221Z 22012G21KT 09/M02 A2983 RMK A01 T00851016  RH  049%=      5-min Rain = 0
KEA1 181222Z 22014G21KT 09/M02 A2982 RMK A01 T00861015  RH  049%=      5-min Rain = 0
KEA1 181223Z 23014KT 09/M01 A2983 RMK A01 T00881014  RH  049%=      5-min Rain = 0
KEA1 181224Z 23015G20KT 09/M01 A2983 RMK A01 T00891014  RH  048%=      5-min Rain = 0
KEA1 181225Z 22013KT 09/M01 A2983 RMK A01 T00901013  RH  049%=      5-min Rain = 0
KEA1 181226Z 23013KT 09/M01 A2983 RMK A01 T00901013  RH  048%=      5-min Rain = 0
KEA1 181227Z 23015G20KT 09/M02 A2983 RMK A01 T00901015  RH  048%=      5-min Rain = 0
KEA1 181228Z 22018KT 09/M02 A2982 RMK A01 T00921015  RH  047%=      5-min Rain = 0
KEA1 181229Z 22018KT 10/M01 A2982 RMK A01 T00961014  RH  046%=      5-min Rain = 0
KEA1 181230Z 23015KT 10/M01 A2982 RMK A01 T00971014  RH  046%=      5-min Rain = 0
KEA1 181231Z 22016G22KT 10/M01 A2983 RMK A01 T00971013  RH  046%=      5-min Rain = 0
KEA1 181232Z 22015G20KT 10/M01 A2982 RMK A01 T00961014  RH  046%=      5-min Rain = 0
KEA1 181233Z 22017KT 10/M01 A2982 RMK A01 T00961012  RH  047%=      5-min Rain = 0
KEA1 181234Z 23017KT 10/M01 A2983 RMK A01 T00951011  RH  048%=      5-min Rain = 0
KEA1 181235Z 23015KT 10/M01 A2983 RMK A01 T00951009  RH  048%=      5-min Rain = 0
KEA1 181236Z 22015KT 09/M01 A2982 RMK A01 T00941007  RH  049%=      5-min Rain = 0
KEA1 181237Z 23013KT 09/M01 A2982 RMK A01 T00941008  RH  049%=      5-min Rain = 0
KEA1 181238Z 23013KT 09/M00 A2983 RMK A01 T00941004  RH  050%=      5-min Rain = 0
KEA1 181239Z 23013KT 09/M01 A2983 RMK A01 T00941005  RH  050%=      5-min Rain = 0
KEA1 181240Z 23011KT 09/M00 A2983 RMK A01 T00941004  RH  050%=      5-min Rain = 0
KEA1 181241Z 23014KT 09/M01 A2983 RMK A01 T00931006  RH  050%=      5-min Rain = 0
KEA1 181242Z 23013KT 09/M01 A2983 RMK A01 T00931009  RH  049%=      5-min Rain = 0
KEA1 181243Z 23012KT 09/M01 A2983 RMK A01 T00941009  RH  049%=      5-min Rain = 0
KEA1 181244Z 23013KT 09/M01 A2983 RMK A01 T00941007  RH  049%=      5-min Rain = 0
KEA1 181245Z 22012KT 10/M01 A2983 RMK A01 T00951006  RH  049%=      5-min Rain = 0
KEA1 181246Z 23013KT 10/M00 A2982 RMK A01 T00971004  RH  049%=      5-min Rain = 0
KEA1 181247Z 22013KT 10/M01 A2982 RMK A01 T00991005  RH  049%=      5-min Rain = 0
KEA1 181248Z 22013KT 10/M01 A2982 RMK A01 T01001008  RH  047%=      5-min Rain = 0
KEA1 181249Z 22014KT 10/M01 A2982 RMK A01 T01011011  RH  046%=      5-min Rain = 0
KEA1 181250Z 22012KT 10/M01 A2982 RMK A01 T01021011  RH  045%=      5-min Rain = 0
KEA1 181251Z 22012KT 10/M01 A2982 RMK A01 T01021013  RH  044%=      5-min Rain = 0
KEA1 181252Z 21012KT 10/M02 A2982 RMK A01 T01031017  RH  043%=      5-min Rain = 0
KEA1 181253Z 22011KT 10/M02 A2982 RMK A01 T01031019  RH  042%=      5-min Rain = 0
KEA1 181254Z 21014KT 10/M02 A2982 RMK A01 T01021020  RH  042%=      5-min Rain = 0
KEA1 181255Z 21016KT 10/M02 A2982 RMK A01 T01021021  RH  042%=      5-min Rain = 0
KEA1 181256Z 21012KT 10/M02 A2982 RMK A01 T01031020  RH  042%=      5-min Rain = 0
KEA1 181257Z 21012KT 10/M02 A2982 RMK A01 T01021021  RH  042%=      5-min Rain = 0
KEA1 181258Z 21013KT 10/M02 A2982 RMK A01 T01001022  RH  043%=      5-min Rain = 0
KEA1 181259Z 21013G18KT 10/M02 A2982 RMK A01 T01001021  RH  043%=      5-min Rain = 0
KEA1 181300Z 21015KT 10/M02 A2982 RMK A01 T01001021  RH  043%=      5-min Rain = 0
KEA1 181301Z 22014KT 10/M02 A2982 RMK A01 T01001020  RH  043%=      5-min Rain = 0
KEA1 181302Z 21012KT 10/M02 A2983 RMK A01 T01011020  RH  043%=      5-min Rain = 0
KEA1 181303Z 21012KT 10/M02 A2983 RMK A01 T01001020  RH  043%=      5-min Rain = 0
KEA1 181304Z 22013KT 10/M02 A2982 RMK A01 T01001018  RH  044%=      5-min Rain = 0
KEA1 181305Z 22012KT 10/M02 A2982 RMK A01 T01011016  RH  044%=      5-min Rain = 0
KEA1 181306Z 22014KT 10/M02 A2982 RMK A01 T01021017  RH  044%=      5-min Rain = 0
KEA1 181307Z 21013G20KT 10/M02 A2982 RMK A01 T01031017  RH  043%=      5-min Rain = 0
KEA1 181308Z 21015G22KT 10/M02 A2982 RMK A01 T01031017  RH  043%=      5-min Rain = 0
KEA1 181309Z 22013KT 10/M02 A2982 RMK A01 T01021017  RH  043%=      5-min Rain = 0
KEA1 181310Z 22012KT 10/M02 A2982 RMK A01 T01021017  RH  044%=      5-min Rain = 0
KEA1 181311Z 22012KT 10/M02 A2982 RMK A01 T01011016  RH  044%=      5-min Rain = 0
KEA1 181312Z 22011KT 10/M02 A2982 RMK A01 T01001016  RH  044%=      5-min Rain = 0
KEA1 181313Z 22014KT 10/M02 A2982 RMK A01 T01011015  RH  044%=      5-min Rain = 0
KEA1 181314Z 22013G18KT 10/M02 A2982 RMK A01 T01011016  RH  044%=      5-min Rain = 0
KEA1 181315Z 21010KT 10/M02 A2982 RMK A01 T01021015  RH  044%=      5-min Rain = 0
KEA1 181316Z 21012KT 10/M02 A2982 RMK A01 T01011017  RH  044%=      5-min Rain = 0
KEA1 181317Z 21013KT 10/M02 A2982 RMK A01 T01001017  RH  044%=      5-min Rain = 0
KEA1 181318Z 21013KT 10/M02 A2982 RMK A01 T01001018  RH  044%=      5-min Rain = 0
KEA1 181319Z 22013KT 10/M02 A2983 RMK A01 T00991019  RH  044%=      5-min Rain = 0
KEA1 181320Z 21016KT 10/M02 A2982 RMK A01 T00991019  RH  044%=      5-min Rain = 0
KEA1 181321Z 21015G20KT 10/M02 A2982 RMK A01 T01021018  RH  043%=      5-min Rain = 0
KEA1 181322Z 21017KT 10/M02 A2982 RMK A01 T01031019  RH  043%=      5-min Rain = 0
KEA1 181323Z 21016KT 10/M02 A2982 RMK A01 T01041018  RH  042%=      5-min Rain = 0
KEA1 181324Z 21016G22KT 10/M02 A2982 RMK A01 T01031019  RH  043%=      5-min Rain = 0
KEA1 181325Z 21015KT 10/M02 A2982 RMK A01 T01021018  RH  043%=      5-min Rain = 0
KEA1 181326Z 21015KT 10/M02 A2982 RMK A01 T01011018  RH  043%=      5-min Rain = 0
KEA1 181327Z 21015KT 10/M02 A2982 RMK A01 T01001017  RH  044%=      5-min Rain = 0
KEA1 181328Z 21018KT 10/M02 A2982 RMK A01 T01001017  RH  044%=      5-min Rain = 0
KEA1 181329Z 21016KT 10/M02 A2982 RMK A01 T01001016  RH  044%=      5-min Rain = 0
KEA1 181330Z 21016KT 10/M02 A2982 RMK A01 T01001016  RH  044%=      5-min Rain = 0
KEA1 181331Z 22015KT 10/M02 A2982 RMK A01 T01001016  RH  045%=      5-min Rain = 0
KEA1 181332Z 21015KT 10/M02 A2982 RMK A01 T00991016  RH  045%=      5-min Rain = 0
KEA1 181333Z 22016KT 10/M02 A2982 RMK A01 T00991016  RH  045%=      5-min Rain = 0
KEA1 181334Z 21013KT 10/M01 A2982 RMK A01 T01001014  RH  045%=      5-min Rain = 0
KEA1 181335Z 22015KT 10/M01 A2982 RMK A01 T00991014  RH  045%=      5-min Rain = 0
KEA1 181336Z 22011KT 10/M01 A2982 RMK A01 T00981013  RH  046%=      5-min Rain = 0
KEA1 181337Z 21014KT 10/M01 A2982 RMK A01 T00961014  RH  046%=      5-min Rain = 0
KEA1 181338Z 21014KT 10/M01 A2982 RMK A01 T00961013  RH  047%=      5-min Rain = 0
KEA1 181339Z 21013KT 10/M01 A2982 RMK A01 T00951013  RH  047%=      5-min Rain = 0
KEA1 181340Z 21014KT 09/M01 A2982 RMK A01 T00941013  RH  047%=      5-min Rain = 0
KEA1 181341Z 21013KT 09/M01 A2982 RMK A01 T00921014  RH  047%=      5-min Rain = 0
KEA1 181342Z 21012KT 09/M01 A2982 RMK A01 T00901013  RH  049%=      5-min Rain = 0
KEA1 181343Z 22012KT 09/M01 A2982 RMK A01 T00891012  RH  049%=      5-min Rain = 0
KEA1 181344Z 22012KT 09/M01 A2982 RMK A01 T00881011  RH  050%=      5-min Rain = 0
KEA1 181345Z 22013KT 09/M01 A2982 RMK A01 T00871010  RH  051%=      5-min Rain = 0
KEA1 181346Z 22011KT 09/M01 A2983 RMK A01 T00871009  RH  051%=      5-min Rain = 0
KEA1 181347Z 22012KT 09/M01 A2983 RMK A01 T00851010  RH  051%=      5-min Rain = 0
KEA1 181348Z 21011KT 08/M01 A2983 RMK A01 T00831011  RH  052%=      5-min Rain = 0
KEA1 181349Z 22012KT 08/M01 A2983 RMK A01 T00821011  RH  052%=      5-min Rain = 0
KEA1 181350Z 22011KT 08/M01 A2983 RMK A01 T00821009  RH  052%=      5-min Rain = 0
KEA1 181351Z 22010KT 08/M01 A2983 RMK A01 T00831008  RH  053%=      5-min Rain = 0
KEA1 181352Z 22013G18KT 08/M01 A2983 RMK A01 T00821009  RH  053%=      5-min Rain = 0
KEA1 181353Z 23012KT 08/M01 A2983 RMK A01 T00821009  RH  052%=      5-min Rain = 0
KEA1 181354Z 22012KT 08/M01 A2983 RMK A01 T00831008  RH  053%=      5-min Rain = 0
KEA1 181355Z 22012KT 08/M01 A2982 RMK A01 T00831009  RH  052%=      5-min Rain = 0
KEA1 181356Z 21012G18KT 08/M01 A2982 RMK A01 T00831010  RH  052%=      5-min Rain = 0
KEA1 181357Z 22011KT 08/M01 A2982 RMK A01 T00831011  RH  051%=      5-min Rain = 0
KEA1 181358Z 22011KT 08/M01 A2982 RMK A01 T00831011  RH  052%=      5-min Rain = 0
KEA1 181359Z 22010KT 08/M01 A2982 RMK A01 T00831010  RH  052%=      5-min Rain = 0
KEA1 181400Z 22017KT 08/M01 A2982 RMK A01 T00821009  RH  053%=      5-min Rain = 0
KEA1 181401Z 22016KT 08/M01 A2982 RMK A01 T00841006  RH  053%=      5-min Rain = 0
KEA1 181402Z 22015KT 09/M01 A2982 RMK A01 T00851005  RH  053%=      5-min Rain = 0
KEA1 181403Z 23015KT 09/M01 A2982 RMK A01 T00851005  RH  053%=      5-min Rain = 0
KEA1 181404Z 22014KT 09/M01 A2982 RMK A01 T00851005  RH  053%=      5-min Rain = 0
KEA1 181405Z 23014KT 08/M01 A2982 RMK A01 T00841005  RH  053%=      5-min Rain = 0
KEA1 181406Z 22014KT 08/M00 A2982 RMK A01 T00841004  RH  054%=      5-min Rain = 0
KEA1 181407Z 22014KT 08/M01 A2982 RMK A01 T00841005  RH  054%=      5-min Rain = 0
KEA1 181408Z 23014KT 08/M01 A2982 RMK A01 T00841005  RH  053%=      5-min Rain = 0
KEA1 181409Z 23016KT 08/M00 A2982 RMK A01 T00841004  RH  054%=      5-min Rain = 0
KEA1 181410Z 22014KT 08/M00 A2982 RMK A01 T00841003  RH  054%=      5-min Rain = 0
KEA1 181411Z 22016KT 08/M00 A2982 RMK A01 T00841004  RH  054%=      5-min Rain = 0
KEA1 181412Z 23015KT 08/M01 A2982 RMK A01 T00841005  RH  053%=      5-min Rain = 0
KEA1 181413Z 22013KT 08/M01 A2982 RMK A01 T00841005  RH  053%=      5-min Rain = 0
KEA1 181414Z 22013KT 08/M01 A2983 RMK A01 T00841005  RH  054%=      5-min Rain = 0
KEA1 181415Z 22013KT 08/M00 A2983 RMK A01 T00821003  RH  055%=      5-min Rain = 0
KEA1 181416Z 22016KT 08/M00 A2982 RMK A01 T00821003  RH  055%=      5-min Rain = 0
KEA1 181417Z 22014KT 08/M01 A2982 RMK A01 T00821006  RH  054%=      5-min Rain = 0
KEA1 181418Z 22014KT 08/M01 A2982 RMK A01 T00821007  RH  054%=      5-min Rain = 0
KEA1 181419Z 23011KT 08/M00 A2983 RMK A01 T00811004  RH  055%=      5-min Rain = 0
KEA1 181420Z 23010KT 08/00 A2983 RMK A01 T008000-0  RH  057%=      5-min Rain = 0
KEA1 181421Z 24013KT 08/M00 A2983 RMK A01 T00781001  RH  057%=      5-min Rain = 0
KEA1 181422Z 24014KT 08/M00 A2983 RMK A01 T00781003  RH  056%=      5-min Rain = 0
KEA1 181423Z 24012KT 08/M01 A2983 RMK A01 T00781005  RH  056%=      5-min Rain = 0
KEA1 181424Z 24013KT 08/M01 A2982 RMK A01 T00771008  RH  055%=      5-min Rain = 0
KEA1 181425Z 23013KT 08/M01 A2982 RMK A01 T00761008  RH  055%=      5-min Rain = 0
KEA1 181426Z 24012KT 08/M01 A2982 RMK A01 T00761009  RH  055%=      5-min Rain = 0
KEA1 181427Z 24012KT 07/M01 A2982 RMK A01 T00741011  RH  055%=      5-min Rain = 0
KEA1 181428Z 24014KT 07/M01 A2982 RMK A01 T00731012  RH  055%=      5-min Rain = 0
KEA1 181429Z 24012KT 07/M01 A2982 RMK A01 T00731012  RH  055%=      5-min Rain = 0
KEA1 181430Z 24012KT 07/M01 A2982 RMK A01 T00731013  RH  055%=      5-min Rain = 0
KEA1 181431Z 24012KT 07/M01 A2982 RMK A01 T00721013  RH  055%=      5-min Rain = 0
KEA1 181432Z 24013KT 07/M01 A2983 RMK A01 T00741013  RH  054%=      5-min Rain = 0
KEA1 181433Z 24012KT 08/M01 A2983 RMK A01 T00761014  RH  053%=      5-min Rain = 0
KEA1 181434Z 24013KT 08/M01 A2983 RMK A01 T00771014  RH  052%=      5-min Rain = 0
KEA1 181435Z 24013KT 08/M01 A2983 RMK A01 T00791014  RH  052%=      5-min Rain = 0
KEA1 181436Z 24012KT 08/M02 A2983 RMK A01 T00811015  RH  051%=      5-min Rain = 0
KEA1 181437Z 24013KT 08/M02 A2983 RMK A01 T00821015  RH  050%=      5-min Rain = 0
KEA1 181438Z 24014KT 08/M02 A2983 RMK A01 T00831015  RH  050%=      5-min Rain = 0
KEA1 181439Z 24015KT 09/M02 A2983 RMK A01 T00851016  RH  049%=      5-min Rain = 0
KEA1 181440Z 24014KT 09/M02 A2983 RMK A01 T00871016  RH  048%=      5-min Rain = 0
KEA1 181441Z 25015KT 09/M02 A2983 RMK A01 T00881016  RH  048%=      5-min Rain = 0
KEA1 181442Z 24013KT 09/M02 A2983 RMK A01 T00881016  RH  048%=      5-min Rain = 0
KEA1 181443Z 24014KT 09/M02 A2983 RMK A01 T00881016  RH  048%=      5-min Rain = 0
KEA1 181444Z 24013KT 09/M02 A2983 RMK A01 T00891016  RH  048%=      5-min Rain = 0
KEA1 181445Z 24014KT 09/M02 A2983 RMK A01 T00911016  RH  047%=      5-min Rain = 0
KEA1 181446Z 23013KT 09/M02 A2983 RMK A01 T00921016  RH  047%=      5-min Rain = 0
KEA1 181447Z 23014KT 09/M02 A2983 RMK A01 T00921015  RH  047%=      5-min Rain = 0
KEA1 181448Z 23016KT 09/M01 A2983 RMK A01 T00921012  RH  048%=      5-min Rain = 0
KEA1 181449Z 23014KT 09/M01 A2983 RMK A01 T00931012  RH  048%=      5-min Rain = 0
KEA1 181450Z 24014KT 09/M02 A2983 RMK A01 T00931015  RH  047%=      5-min Rain = 0
KEA1 181451Z 24013KT 09/M02 A2983 RMK A01 T00921016  RH  047%=      5-min Rain = 0
KEA1 181452Z 23013KT 09/M02 A2983 RMK A01 T00921016  RH  047%=      5-min Rain = 0
KEA1 181453Z 24013KT 09/M02 A2983 RMK A01 T00921015  RH  047%=      5-min Rain = 0
KEA1 181454Z 23013KT 09/M02 A2983 RMK A01 T00911015  RH  047%=      5-min Rain = 0
KEA1 181455Z 23015KT 09/M01 A2983 RMK A01 T00921014  RH  047%=      5-min Rain = 0
KEA1 181456Z 24015KT 09/M01 A2983 RMK A01 T00931013  RH  047%=      5-min Rain = 0
KEA1 181457Z 23015KT 10/M01 A2983 RMK A01 T00951011  RH  047%=      5-min Rain = 0
KEA1 181458Z 23015KT 10/M01 A2983 RMK A01 T00961011  RH  047%=      5-min Rain = 0
KEA1 181459Z 23015KT 10/M01 A2983 RMK A01 T00961012  RH  047%=      5-min Rain = 0
KEA1 181500Z 24017G22KT 10/M01 A2983 RMK A01 T00961011  RH  047%=      5-min Rain = 0
KEA1 181501Z 24014KT 10/M01 A2983 RMK A01 T00971013  RH  046%=      5-min Rain = 0
KEA1 181502Z 23015KT 10/M02 A2983 RMK A01 T00971015  RH  046%=      5-min Rain = 0
KEA1 181503Z 23017KT 10/M02 A2983 RMK A01 T00961016  RH  045%=      5-min Rain = 0
KEA1 181504Z 23016KT 10/M02 A2983 RMK A01 T00971015  RH  046%=      5-min Rain = 0
KEA1 181505Z 23016KT 10/M01 A2983 RMK A01 T00971014  RH  046%=      5-min Rain = 0
KEA1 181506Z 24014KT 10/M02 A2983 RMK A01 T00971015  RH  045%=      5-min Rain = 0
KEA1 181507Z 23016KT 10/M02 A2983 RMK A01 T00971015  RH  046%=      5-min Rain = 0
KEA1 181508Z 23016KT 10/M02 A2983 RMK A01 T00971016  RH  045%=      5-min Rain = 0
KEA1 181509Z 23014KT 10/M02 A2983 RMK A01 T00971016  RH  045%=      5-min Rain = 0
KEA1 181510Z 24015KT 10/M02 A2983 RMK A01 T00961016  RH  045%=      5-min Rain = 0
KEA1 181511Z 23013KT 10/M02 A2983 RMK A01 T00971017  RH  045%=      5-min Rain = 0
KEA1 181512Z 23014KT 10/M02 A2982 RMK A01 T00971016  RH  045%=      5-min Rain = 0
KEA1 181513Z 24014KT 10/M02 A2982 RMK A01 T00971018  RH  044%=      5-min Rain = 0
KEA1 181514Z 23014KT 10/M02 A2982 RMK A01 T00991017  RH  044%=      5-min Rain = 0
KEA1 181515Z 24014KT 10/M02 A2982 RMK A01 T01021017  RH  043%=      5-min Rain = 0
KEA1 181516Z 24013G18KT 11/M02 A2982 RMK A01 T01051015  RH  043%=      5-min Rain = 0
KEA1 181517Z 24012KT 11/M02 A2982 RMK A01 T01061016  RH  042%=      5-min Rain = 0
KEA1 181518Z 23013KT 11/M02 A2982 RMK A01 T01071017  RH  042%=      5-min Rain = 0
KEA1 181519Z 24014KT 11/M02 A2982 RMK A01 T01081017  RH  042%=      5-min Rain = 0
KEA1 181520Z 24014KT 11/M02 A2982 RMK A01 T01091017  RH  041%=      5-min Rain = 0
KEA1 181521Z 24015KT 11/M02 A2982 RMK A01 T01111015  RH  041%=      5-min Rain = 0
KEA1 181522Z 23014KT 11/M02 A2982 RMK A01 T01121016  RH  041%=      5-min Rain = 0
KEA1 181523Z 23014KT 11/M02 A2982 RMK A01 T01141015  RH  041%=      5-min Rain = 0
KEA1 181524Z 23015KT 12/M01 A2982 RMK A01 T01161013  RH  041%=      5-min Rain = 0
KEA1 181525Z 24013KT 12/M01 A2982 RMK A01 T01171013  RH  040%=      5-min Rain = 0
KEA1 181526Z 23016KT 12/M01 A2982 RMK A01 T01191013  RH  040%=      5-min Rain = 0
KEA1 181527Z 24014G19KT 12/M02 A2982 RMK A01 T01201015  RH  039%=      5-min Rain = 0
KEA1 181528Z 23014KT 12/M02 A2982 RMK A01 T01211015  RH  039%=      5-min Rain = 0
KEA1 181529Z 23016KT 12/M01 A2982 RMK A01 T01221013  RH  039%=      5-min Rain = 0
KEA1 181530Z 24014KT 12/M01 A2982 RMK A01 T01231014  RH  039%=      5-min Rain = 0
KEA1 181531Z 24013KT 12/M01 A2982 RMK A01 T01241014  RH  038%=      5-min Rain = 0
KEA1 181532Z 24013KT 13/M02 A2982 RMK A01 T01251015  RH  038%=      5-min Rain = 0
KEA1 181533Z 24013KT 13/M02 A2982 RMK A01 T01261015  RH  038%=      5-min Rain = 0
KEA1 181534Z 24013KT 13/M02 A2982 RMK A01 T01271015  RH  037%=      5-min Rain = 0
KEA1 181535Z 24015G20KT 13/M02 A2982 RMK A01 T01291015  RH  037%=      5-min Rain = 0
KEA1 181536Z 24014KT 13/M01 A2982 RMK A01 T01301014  RH  037%=      5-min Rain = 0
KEA1 181537Z 24017KT 13/M02 A2982 RMK A01 T01301015  RH  037%=      5-min Rain = 0
KEA1 181538Z 24016KT 13/M02 A2982 RMK A01 T01311017  RH  036%=      5-min Rain = 0
KEA1 181539Z 25014KT 13/M02 A2982 RMK A01 T01311017  RH  036%=      5-min Rain = 0
KEA1 181540Z 24014KT 13/M02 A2982 RMK A01 T01311016  RH  036%=      5-min Rain = 0
KEA1 181541Z 25015KT 13/M01 A2982 RMK A01 T01331014  RH  036%=      5-min Rain = 0
KEA1 181542Z 25017KT 13/M02 A2982 RMK A01 T01341015  RH  036%=      5-min Rain = 0
KEA1 181543Z 25017KT 14/M02 A2982 RMK A01 T01351016  RH  035%=      5-min Rain = 0
KEA1 181544Z 25018KT 14/M02 A2982 RMK A01 T01351017  RH  035%=      5-min Rain = 0
KEA1 181545Z 25014KT 14/M02 A2982 RMK A01 T01361015  RH  035%=      5-min Rain = 0
KEA1 181546Z 24017KT 14/M02 A2982 RMK A01 T01371015  RH  035%=      5-min Rain = 0
KEA1 181547Z 25019KT 14/M02 A2982 RMK A01 T01381017  RH  034%=      5-min Rain = 0
KEA1 181548Z 25019G24KT 14/M02 A2982 RMK A01 T01371017  RH  034%=      5-min Rain = 0
KEA1 181549Z 24017KT 14/M02 A2982 RMK A01 T01381017  RH  034%=      5-min Rain = 0
KEA1 181550Z 25015KT 14/M02 A2982 RMK A01 T01371016  RH  035%=      5-min Rain = 0
KEA1 181551Z 24015KT 14/M02 A2982 RMK A01 T01381015  RH  035%=      5-min Rain = 0
KEA1 181552Z 25017KT 14/M02 A2982 RMK A01 T01391016  RH  034%=      5-min Rain = 0
KEA1 181553Z 24018KT 14/M02 A2982 RMK A01 T01391017  RH  034%=      5-min Rain = 0
KEA1 181554Z 25018KT 14/M02 A2982 RMK A01 T01391017  RH  034%=      5-min Rain = 0
KEA1 181555Z 25016KT 14/M02 A2982 RMK A01 T01391016  RH  034%=      5-min Rain = 0
KEA1 181556Z 24015G20KT 14/M02 A2982 RMK A01 T01401015  RH  034%=      5-min Rain = 0
KEA1 181557Z 25015G20KT 14/M01 A2982 RMK A01 T01411014  RH  034%=      5-min Rain = 0
KEA1 181558Z 24016KT 14/M02 A2982 RMK A01 T01421015  RH  034%=      5-min Rain = 0
KEA1 181559Z 24016KT 14/M01 A2982 RMK A01 T01421014  RH  034%=      5-min Rain = 0
KEA1 181600Z 24016KT 14/M01 A2982 RMK A01 T01421014  RH  034%=      5-min Rain = 0
KEA1 181601Z 25018KT 14/M02 A2982 RMK A01 T01421015  RH  034%=      5-min Rain = 0
KEA1 181602Z 25020KT 14/M02 A2982 RMK A01 T01431016  RH  034%=      5-min Rain = 0
KEA1 181603Z 24022KT 14/M02 A2982 RMK A01 T01421017  RH  033%=      5-min Rain = 0
KEA1 181604Z 25021KT 14/M02 A2982 RMK A01 T01421017  RH  033%=      5-min Rain = 0
KEA1 181605Z 24018KT 14/M02 A2982 RMK A01 T01411017  RH  034%=      5-min Rain = 0
KEA1 181606Z 24019KT 14/M02 A2982 RMK A01 T01421015  RH  034%=      5-min Rain = 0
KEA1 181607Z 25020KT 14/M02 A2982 RMK A01 T01431016  RH  034%=      5-min Rain = 0
KEA1 181608Z 25017G23KT 14/M02 A2982 RMK A01 T01431015  RH  034%=      5-min Rain = 0
KEA1 181609Z 25019G26KT 14/M02 A2982 RMK A01 T01431015  RH  034%=      5-min Rain = 0
KEA1 181610Z 25018KT 14/M02 A2982 RMK A01 T01431016  RH  033%=      5-min Rain = 0
KEA1 181611Z 25018KT 14/M02 A2982 RMK A01 T01431015  RH  033%=      5-min Rain = 0
KEA1 181612Z 26015KT 15/M01 A2982 RMK A01 T01451014  RH  033%=      5-min Rain = 0
KEA1 181613Z 25016G21KT 15/M01 A2982 RMK A01 T01461013  RH  033%=      5-min Rain = 0
KEA1 181614Z 25019G24KT 15/M02 A2982 RMK A01 T01471015  RH  033%=      5-min Rain = 0
KEA1 181615Z 25019KT 15/M02 A2982 RMK A01 T01471015  RH  033%=      5-min Rain = 0
KEA1 181616Z 25016KT 15/M01 A2982 RMK A01 T01471014  RH  033%=      5-min Rain = 0
KEA1 181617Z 25022KT 15/M01 A2982 RMK A01 T01481014  RH  033%=      5-min Rain = 0
KEA1 181618Z 26020KT 15/M02 A2982 RMK A01 T01471015  RH  033%=      5-min Rain = 0
KEA1 181619Z 26021KT 15/M02 A2982 RMK A01 T01461016  RH  033%=      5-min Rain = 0
KEA1 181620Z 26019G24KT 15/M02 A2982 RMK A01 T01461015  RH  033%=      5-min Rain = 0
KEA1 181621Z 25019KT 15/M02 A2982 RMK A01 T01471015  RH  033%=      5-min Rain = 0
KEA1 181622Z 24016KT 15/M01 A2982 RMK A01 T01471014  RH  033%=      5-min Rain = 0
KEA1 181623Z 25017KT 15/M01 A2982 RMK A01 T01491012  RH  033%=      5-min Rain = 0
KEA1 181624Z 25020KT 15/M01 A2982 RMK A01 T01501013  RH  033%=      5-min Rain = 0
KEA1 181625Z 25019G25KT 15/M02 A2982 RMK A01 T01481015  RH  033%=      5-min Rain = 0
KEA1 181626Z 25020KT 15/M02 A2982 RMK A01 T01471015  RH  033%=      5-min Rain = 0
KEA1 181627Z 24017KT 15/M01 A2982 RMK A01 T01471013  RH  033%=      5-min Rain = 0
KEA1 181628Z 26016G21KT 15/M01 A2982 RMK A01 T01501010  RH  033%=      5-min Rain = 0
KEA1 181629Z 26019G24KT 15/M01 A2982 RMK A01 T01511011  RH  033%=      5-min Rain = 0
KEA1 181630Z 26020KT 15/M01 A2982 RMK A01 T01501013  RH  033%=      5-min Rain = 0
KEA1 181631Z 25020G25KT 15/M01 A2982 RMK A01 T01491013  RH  033%=      5-min Rain = 0
KEA1 181632Z 26020KT 15/M01 A2982 RMK A01 T01491013  RH  033%=      5-min Rain = 0
KEA1 181633Z 25018G23KT 15/M01 A2982 RMK A01 T01491012  RH  033%=      5-min Rain = 0
KEA1 181634Z 26019KT 15/M01 A2982 RMK A01 T01491012  RH  033%=      5-min Rain = 0
KEA1 181635Z 26017KT 15/M01 A2982 RMK A01 T01511010  RH  033%=      5-min Rain = 0
KEA1 181636Z 26019KT 15/M01 A2982 RMK A01 T01521011  RH  033%=      5-min Rain = 0
KEA1 181637Z 24023KT 15/M01 A2982 RMK A01 T01511011  RH  033%=      5-min Rain = 0
KEA1 181638Z 25022KT 15/M01 A2982 RMK A01 T01501012  RH  033%=      5-min Rain = 0
KEA1 181639Z 25021KT 15/M01 A2982 RMK A01 T01501012  RH  033%=      5-min Rain = 0
KEA1 181640Z 25020KT 15/M01 A2982 RMK A01 T01501011  RH  033%=      5-min Rain = 0
KEA1 181641Z 25018KT 15/M01 A2982 RMK A01 T01511010  RH  033%=      5-min Rain = 0
KEA1 181642Z 25017G24KT 15/M01 A2982 RMK A01 T01531008  RH  033%=      5-min Rain = 0
KEA1 181643Z 25021KT 16/M01 A2982 RMK A01 T01551009  RH  032%=      5-min Rain = 0
KEA1 181644Z 24022G27KT 15/M01 A2982 RMK A01 T01541011  RH  032%=      5-min Rain = 0
KEA1 181645Z 24025KT 15/M01 A2982 RMK A01 T01531010  RH  033%=      5-min Rain = 0
KEA1 181646Z 25021KT 15/M01 A2982 RMK A01 T01521011  RH  033%=      5-min Rain = 0
KEA1 181647Z 26024KT 15/M01 A2982 RMK A01 T01521010  RH  033%=      5-min Rain = 0
KEA1 181648Z 25022KT 15/M01 A2981 RMK A01 T01521012  RH  032%=      5-min Rain = 0
KEA1 181649Z 25019G24KT 15/M01 A2981 RMK A01 T01521012  RH  032%=      5-min Rain = 0
KEA1 181650Z 25021KT 15/M01 A2981 RMK A01 T01521010  RH  033%=      5-min Rain = 0
KEA1 181651Z 26019G26KT 15/M01 A2981 RMK A01 T01541009  RH  033%=      5-min Rain = 0
KEA1 181652Z 25023G29KT 15/M01 A2981 RMK A01 T01541011  RH  032%=      5-min Rain = 0
KEA1 181653Z 26026KT 15/M01 A2981 RMK A01 T01541011  RH  032%=      5-min Rain = 0
KEA1 181654Z 25022KT 15/M01 A2981 RMK A01 T01531012  RH  032%=      5-min Rain = 0
KEA1 181655Z 25017KT 15/M01 A2981 RMK A01 T01541009  RH  033%=      5-min Rain = 0
KEA1 181656Z 26023KT 16/M01 A2981 RMK A01 T01571008  RH  032%=      5-min Rain = 0
KEA1 181657Z 25018G24KT 16/M01 A2981 RMK A01 T01571009  RH  032%=      5-min Rain = 0
KEA1 181658Z 25021G29KT 16/M01 A2981 RMK A01 T01591007  RH  032%=      5-min Rain = 0
KEA1 181659Z 25026G31KT 16/M01 A2981 RMK A01 T01591010  RH  031%=      5-min Rain = 0
KEA1 181700Z 25021KT 16/M01 A2981 RMK A01 T01571011  RH  032%=      5-min Rain = 0
KEA1 181701Z 25020KT 16/M01 A2981 RMK A01 T01581009  RH  032%=      5-min Rain = 0
KEA1 181702Z 25020KT 16/M01 A2981 RMK A01 T01591008  RH  032%=      5-min Rain = 0
KEA1 181703Z 26022KT 16/M01 A298 RMK A01 T01611007  RH  032%=      5-min Rain = 0
KEA1 181704Z 25021KT 16/M01 A298 RMK A01 T01611008  RH  031%=      5-min Rain = 0
KEA1 181705Z 25022G28KT 16/M01 A298 RMK A01 T01631007  RH  031%=      5-min Rain = 0
KEA1 181706Z 25024G29KT 16/M01 A298 RMK A01 T01631007  RH  031%=      5-min Rain = 0
KEA1 181707Z 25017G22KT 16/M01 A298 RMK A01 T01621006  RH  032%=      5-min Rain = 0
KEA1 181708Z 25024KT 17/M01 A298 RMK A01 T01651006  RH  031%=      5-min Rain = 0
KEA1 181709Z 25021G27KT 16/M01 A298 RMK A01 T01631007  RH  031%=      5-min Rain = 0
KEA1 181710Z 25024KT 16/M01 A298 RMK A01 T01631005  RH  032%=      5-min Rain = 0
KEA1 181711Z 26020KT 17/M01 A298 RMK A01 T01651005  RH  032%=      5-min Rain = 0
KEA1 181712Z 25026G33KT 17/M00 A298 RMK A01 T01671003  RH  031%=      5-min Rain = 0
KEA1 181713Z 25023G30KT 17/M00 A298 RMK A01 T01671004  RH  031%=      5-min Rain = 0
KEA1 181714Z 25021KT 17/M00 A298 RMK A01 T01661004  RH  031%=      5-min Rain = 0
KEA1 181715Z 26022G31KT 17/M00 A298 RMK A01 T01671003  RH  032%=      5-min Rain = 0
KEA1 181716Z 26023G29KT 17/M00 A298 RMK A01 T01691002  RH  031%=      5-min Rain = 0
KEA1 181717Z 26026G31KT 17/M00 A298 RMK A01 T01681003  RH  031%=      5-min Rain = 0
KEA1 181718Z 25028KT 17/M00 A298 RMK A01 T01661004  RH  031%=      5-min Rain = 0
KEA1 181719Z 25028KT 17/M00 A298 RMK A01 T01651004  RH  032%=      5-min Rain = 0
KEA1 181720Z 25027G33KT 16/M01 A298 RMK A01 T01641005  RH  032%=      5-min Rain = 0
KEA1 181721Z 25027KT 16/M01 A298 RMK A01 T01631005  RH  032%=      5-min Rain = 0
KEA1 181722Z 25023G28KT 16/M00 A2979 RMK A01 T01641003  RH  032%=      5-min Rain = 0
KEA1 181723Z 26024G30KT 17/M00 A2979 RMK A01 T01661001  RH  032%=      5-min Rain = 0
KEA1 181724Z 26026G32KT 17/M00 A2979 RMK A01 T01671002  RH  032%=      5-min Rain = 0
KEA1 181725Z 25026KT 17/M00 A2979 RMK A01 T01661001  RH  032%=      5-min Rain = 0
KEA1 181726Z 24027G34KT 17/00 A2979 RMK A01 T01660001  RH  032%=      5-min Rain = 0
KEA1 181727Z 25026G31KT 17/00 A2979 RMK A01 T01680003  RH  033%=      5-min Rain = 0
KEA1 181728Z 25031G37KT 17/00 A2979 RMK A01 T01680002  RH  032%=      5-min Rain = 0
KEA1 181729Z 25030G38KT 17/00 A2979 RMK A01 T01660000  RH  032%=      5-min Rain = 0
KEA1 181730Z 25034KT 17/00 A2979 RMK A01 T01660002  RH  033%=      5-min Rain = 0
KEA1 181731Z 25028G34KT 17/00 A2978 RMK A01 T01650001  RH  033%=      5-min Rain = 0
KEA1 181732Z 24028G34KT 17/00 A2978 RMK A01 T01660004  RH  033%=      5-min Rain = 0
KEA1 181733Z 25030G37KT 17/00 A2978 RMK A01 T01660004  RH  033%=      5-min Rain = 0
KEA1 181734Z 25027G32KT 17/01 A2978 RMK A01 T01670006  RH  033%=      5-min Rain = 0
KEA1 181735Z 25029KT 17/01 A2978 RMK A01 T01700006  RH  033%=      5-min Rain = 0
KEA1 181736Z 26029KT 17/00 A2978 RMK A01 T01680003  RH  033%=      5-min Rain = 0
KEA1 181737Z 26030KT 17/00 A2978 RMK A01 T01670004  RH  033%=      5-min Rain = 0
KEA1 181738Z 25029G37KT 17/01 A2978 RMK A01 T01680005  RH  033%=      5-min Rain = 0
KEA1 181739Z 26032G38KT 17/01 A2978 RMK A01 T01680005  RH  033%=      5-min Rain = 0
KEA1 181740Z 25032G40KT 17/01 A2978 RMK A01 T01680005  RH  033%=      5-min Rain = 0
KEA1 181741Z 25031G39KT 17/00 A2978 RMK A01 T01680004  RH  033%=      5-min Rain = 0
KEA1 181742Z 25031G38KT 17/01 A2978 RMK A01 T01680005  RH  033%=      5-min Rain = 0
KEA1 181743Z 25030G37KT 17/01 A2978 RMK A01 T01680006  RH  033%=      5-min Rain = 0
KEA1 181744Z 25034G40KT 17/01 A2978 RMK A01 T01680007  RH  034%=      5-min Rain = 0
KEA1 181745Z 25032G38KT 17/01 A2978 RMK A01 T01670005  RH  034%=      5-min Rain = 0
KEA1 181746Z 26033G39KT 17/01 A2978 RMK A01 T01660006  RH  034%=      5-min Rain = 0
KEA1 181747Z 26034G41KT 17/01 A2978 RMK A01 T01660005  RH  034%=      5-min Rain = 0
KEA1 181748Z 26034G40KT 17/01 A2978 RMK A01 T01660005  RH  034%=      5-min Rain = 0
KEA1 181749Z 26034G39KT 17/01 A2978 RMK A01 T01650006  RH  034%=      5-min Rain = 0
KEA1 181750Z 26032G39KT 17/01 A2978 RMK A01 T01660005  RH  034%=      5-min Rain = 0
KEA1 181751Z 27030G39KT 17/01 A2977 RMK A01 T01670006  RH  034%=      5-min Rain = 0
KEA1 181752Z 26033G38KT 17/01 A2977 RMK A01 T01670005  RH  034%=      5-min Rain = 0
KEA1 181753Z 26030G35KT 17/01 A2977 RMK A01 T01660006  RH  034%=      5-min Rain = 0
KEA1 181754Z 26028G34KT 17/01 A2977 RMK A01 T01670007  RH  034%=      5-min Rain = 0
KEA1 181755Z 26024G30KT 17/01 A2977 RMK A01 T01690008  RH  034%=      5-min Rain = 0
KEA1 181756Z 25026KT 17/01 A2977 RMK A01 T01710009  RH  033%=      5-min Rain = 0
KEA1 181757Z 26034KT 17/01 A2977 RMK A01 T01710007  RH  033%=      5-min Rain = 0
KEA1 181758Z 26031G36KT 17/01 A2977 RMK A01 T01680006  RH  033%=      5-min Rain = 0
KEA1 181759Z 25033G40KT 17/01 A2977 RMK A01 T01670007  RH  034%=      5-min Rain = 0
KEA1 181800Z 26031G38KT 17/01 A2977 RMK A01 T01670006  RH  034%=      5-min Rain = 0
KEA1 181801Z 25030G36KT 17/01 A2976 RMK A01 T01670007  RH  034%=      5-min Rain = 0
KEA1 181802Z 26028G35KT 17/01 A2976 RMK A01 T01670006  RH  034%=      5-min Rain = 0
KEA1 181803Z 26029G36KT 17/01 A2976 RMK A01 T01680008  RH  034%=      5-min Rain = 0
KEA1 181804Z 27032G37KT 17/01 A2976 RMK A01 T01690007  RH  033%=      5-min Rain = 0
KEA1 181805Z 26031G39KT 17/01 A2976 RMK A01 T01690007  RH  033%=      5-min Rain = 0
KEA1 181806Z 27030G35KT 17/01 A2976 RMK A01 T01680007  RH  033%=      5-min Rain = 0
KEA1 181807Z 26031G36KT 17/01 A2976 RMK A01 T01680007  RH  034%=      5-min Rain = 0
KEA1 181808Z 25030G35KT 17/01 A2976 RMK A01 T01680006  RH  034%=      5-min Rain = 0
KEA1 181809Z 26032G37KT 17/01 A2976 RMK A01 T01690007  RH  033%=      5-min Rain = 0
KEA1 181810Z 26029G36KT 17/01 A2976 RMK A01 T01690005  RH  033%=      5-min Rain = 0
KEA1 181811Z 26033KT 17/01 A2976 RMK A01 T01680005  RH  033%=      5-min Rain = 0
KEA1 181812Z 26031G38KT 17/01 A2976 RMK A01 T01670005  RH  033%=      5-min Rain = 0
KEA1 181813Z 26030G36KT 17/01 A2976 RMK A01 T01680005  RH  033%=      5-min Rain = 0
KEA1 181814Z 27032G38KT 17/01 A2976 RMK A01 T01690005  RH  033%=      5-min Rain = 0
KEA1 181815Z 26030G37KT 17/01 A2976 RMK A01 T01700006  RH  033%=      5-min Rain = 0
KEA1 181816Z 25033KT 17/01 A2975 RMK A01 T01700007  RH  033%=      5-min Rain = 0
KEA1 181817Z 26033G40KT 17/01 A2976 RMK A01 T01700006  RH  033%=      5-min Rain = 0
KEA1 181818Z 25030G38KT 17/01 A2976 RMK A01 T01670006  RH  033%=      5-min Rain = 0
KEA1 181819Z 26033G38KT 17/01 A2975 RMK A01 T01680005  RH  033%=      5-min Rain = 0
KEA1 181820Z 26028KT 17/01 A2975 RMK A01 T01690006  RH  033%=      5-min Rain = 0
KEA1 181821Z 26027G33KT 17/01 A2975 RMK A01 T01700007  RH  033%=      5-min Rain = 0
KEA1 181822Z 26032G37KT 17/01 A2975 RMK A01 T01710007  RH  033%=      5-min Rain = 0
KEA1 181823Z 25032G39KT 17/01 A2975 RMK A01 T01700006  RH  033%=      5-min Rain = 0
KEA1 181824Z 25035G42KT 17/01 A2975 RMK A01 T01690006  RH  033%=      5-min Rain = 0
KEA1 181825Z 25034G41KT 17/01 A2975 RMK A01 T01680005  RH  033%=      5-min Rain = 0
KEA1 181826Z 25033KT 17/01 A2975 RMK A01 T01680005  RH  033%=      5-min Rain = 0
KEA1 181827Z 26031KT 17/01 A2975 RMK A01 T01670005  RH  033%=      5-min Rain = 0
KEA1 181828Z 26033G41KT 17/01 A2975 RMK A01 T01670006  RH  034%=      5-min Rain = 0
KEA1 181829Z 26034G39KT 17/01 A2975 RMK A01 T01680006  RH  033%=      5-min Rain = 0
KEA1 181830Z 26030G36KT 17/01 A2975 RMK A01 T01690006  RH  033%=      5-min Rain = 0
KEA1 181831Z 25030G38KT 17/01 A2975 RMK A01 T01700006  RH  033%=      5-min Rain = 0
KEA1 181832Z 25030G36KT 17/01 A2975 RMK A01 T01700005  RH  033%=      5-min Rain = 0
KEA1 181833Z 26031G36KT 17/01 A2975 RMK A01 T01710006  RH  033%=      5-min Rain = 0
KEA1 181834Z 26030G35KT 17/00 A2975 RMK A01 T01700004  RH  033%=      5-min Rain = 0
KEA1 181835Z 26029G35KT 17/00 A2974 RMK A01 T01690003  RH  032%=      5-min Rain = 0
KEA1 181836Z 26030G35KT 17/00 A2974 RMK A01 T01690003  RH  032%=      5-min Rain = 0
KEA1 181837Z 25027KT 17/01 A2974 RMK A01 T01690006  RH  033%=      5-min Rain = 0
KEA1 181838Z 25031G37KT 17/01 A2974 RMK A01 T01700007  RH  033%=      5-min Rain = 0
KEA1 181839Z 25031G36KT 17/01 A2974 RMK A01 T01700006  RH  033%=      5-min Rain = 0
KEA1 181840Z 26030G39KT 17/01 A2974 RMK A01 T01690006  RH  033%=      5-min Rain = 0
KEA1 181841Z 25028G39KT 17/01 A2974 RMK A01 T01690005  RH  033%=      5-min Rain = 0
KEA1 181842Z 25033KT 17/01 A2974 RMK A01 T01700006  RH  033%=      5-min Rain = 0
KEA1 181843Z 25031G36KT 17/01 A2974 RMK A01 T01690005  RH  033%=      5-min Rain = 0
KEA1 181844Z 25026G31KT 17/01 A2974 RMK A01 T01690007  RH  033%=      5-min Rain = 0
KEA1 181845Z 25029G37KT 17/01 A2974 RMK A01 T01730010  RH  033%=      5-min Rain = 0
KEA1 181846Z 25034G40KT 17/01 A2974 RMK A01 T01730007  RH  033%=      5-min Rain = 0
KEA1 181847Z 25034G39KT 17/01 A2974 RMK A01 T01700007  RH  033%=      5-min Rain = 0
KEA1 181848Z 25032G39KT 17/01 A2974 RMK A01 T01680007  RH  034%=      5-min Rain = 0
KEA1 181849Z 26033KT 17/01 A2973 RMK A01 T01680008  RH  034%=      5-min Rain = 0
KEA1 181850Z 26032G39KT 17/01 A2974 RMK A01 T01670009  RH  034%=      5-min Rain = 0
KEA1 181851Z 26035G42KT 17/01 A2973 RMK A01 T01680010  RH  034%=      5-min Rain = 0
KEA1 181852Z 25031G36KT 17/01 A2973 RMK A01 T01690010  RH  034%=      5-min Rain = 0
KEA1 181853Z 25028G35KT 17/01 A2973 RMK A01 T01700011  RH  034%=      5-min Rain = 0
KEA1 181854Z 25029G38KT 17/01 A2973 RMK A01 T01710011  RH  034%=      5-min Rain = 0
KEA1 181855Z 25029G36KT 17/01 A2973 RMK A01 T01730011  RH  034%=      5-min Rain = 0
KEA1 181856Z 26030G36KT 17/01 A2972 RMK A01 T01720011  RH  034%=      5-min Rain = 0
KEA1 181857Z 25030G35KT 17/01 A2972 RMK A01 T01710011  RH  034%=      5-min Rain = 0
KEA1 181858Z 25033G40KT 17/01 A2972 RMK A01 T01700010  RH  034%=      5-min Rain = 0
KEA1 181859Z 25037G42KT 17/01 A2972 RMK A01 T01680010  RH  034%=      5-min Rain = 0
KEA1 181900Z 25031G38KT 17/01 A2972 RMK A01 T01680010  RH  035%=      5-min Rain = 0
KEA1 181901Z 25033G39KT 17/01 A2972 RMK A01 T01700011  RH  034%=      5-min Rain = 0
KEA1 181902Z 25031G38KT 17/01 A2972 RMK A01 T01720012  RH  034%=      5-min Rain = 0
KEA1 181903Z 25033G38KT 17/01 A2971 RMK A01 T01710011  RH  034%=      5-min Rain = 0
KEA1 181904Z 25034G39KT 17/01 A2971 RMK A01 T01700012  RH  034%=      5-min Rain = 0
KEA1 181905Z 25031G36KT 17/01 A2971 RMK A01 T01700012  RH  034%=      5-min Rain = 0
KEA1 181906Z 25033G41KT 17/01 A2971 RMK A01 T01700012  RH  034%=      5-min Rain = 0
KEA1 181907Z 25031G39KT 17/01 A2971 RMK A01 T01680011  RH  034%=      5-min Rain = 0
KEA1 181908Z 25032KT 17/01 A2971 RMK A01 T01680011  RH  035%=      5-min Rain = 0
KEA1 181909Z 25030G37KT 17/01 A2971 RMK A01 T01700012  RH  034%=      5-min Rain = 0
KEA1 181910Z 25036G42KT 17/01 A2971 RMK A01 T01710011  RH  034%=      5-min Rain = 0
KEA1 181911Z 25036KT 17/01 A2972 RMK A01 T01690010  RH  034%=      5-min Rain = 0
KEA1 181912Z 25033G38KT 17/01 A2971 RMK A01 T01660009  RH  034%=      5-min Rain = 0
KEA1 181913Z 25034KT 17/01 A2971 RMK A01 T01660009  RH  034%=      5-min Rain = 0
KEA1 181914Z 25027G33KT 17/01 A2971 RMK A01 T01690009  RH  034%=      5-min Rain = 0
KEA1 181915Z 26026G31KT 17/01 A2971 RMK A01 T01730007  RH  033%=      5-min Rain = 0
KEA1 181916Z 25033G38KT 18/01 A2971 RMK A01 T01750006  RH  032%=      5-min Rain = 0
KEA1 181917Z 25035KT 17/01 A2971 RMK A01 T01710006  RH  033%=      5-min Rain = 0
KEA1 181918Z 25034KT 17/01 A2971 RMK A01 T01680008  RH  034%=      5-min Rain = 0
KEA1 181919Z 26029G35KT 17/01 A2971 RMK A01 T01690009  RH  034%=      5-min Rain = 0
KEA1 181920Z 26032G39KT 17/01 A297 RMK A01 T01710008  RH  033%=      5-min Rain = 0
KEA1 181921Z 25035KT 17/01 A2971 RMK A01 T01720007  RH  033%=      5-min Rain = 0
KEA1 181922Z 25032KT 17/01 A297 RMK A01 T01700005  RH  033%=      5-min Rain = 0
KEA1 181923Z 25029G36KT 17/01 A297 RMK A01 T01690007  RH  033%=      5-min Rain = 0
KEA1 181924Z 26028G36KT 17/01 A297 RMK A01 T01710007  RH  033%=      5-min Rain = 0
KEA1 181925Z 25028G33KT 17/01 A297 RMK A01 T01720009  RH  033%=      5-min Rain = 0
KEA1 181926Z 26025G31KT 17/01 A297 RMK A01 T01710011  RH  034%=      5-min Rain = 0
KEA1 181927Z 27029G35KT 17/01 A297 RMK A01 T01730011  RH  033%=      5-min Rain = 0
KEA1 181928Z 27028G33KT 17/01 A297 RMK A01 T01730012  RH  034%=      5-min Rain = 0
KEA1 181929Z 26026KT 17/01 A297 RMK A01 T01740012  RH  033%=      5-min Rain = 0
KEA1 181930Z 26027G32KT 17/01 A297 RMK A01 T01740011  RH  033%=      5-min Rain = 0
KEA1 181931Z 25025G33KT 18/01 A2969 RMK A01 T01750014  RH  034%=      5-min Rain = 0
KEA1 181932Z 25032G38KT 18/01 A2969 RMK A01 T01750010  RH  033%=      5-min Rain = 0
KEA1 181933Z 25032G37KT 18/01 A2969 RMK A01 T01750009  RH  033%=      5-min Rain = 0
KEA1 181934Z 25032KT 17/01 A2969 RMK A01 T01740010  RH  033%=      5-min Rain = 0
KEA1 181935Z 24026G34KT 17/01 A2969 RMK A01 T01740011  RH  033%=      5-min Rain = 0
KEA1 181936Z 25030G37KT 18/01 A2969 RMK A01 T01760011  RH  033%=      5-min Rain = 0
KEA1 181937Z 25026G34KT 17/01 A2969 RMK A01 T01740010  RH  033%=      5-min Rain = 0
KEA1 181938Z 26027G33KT 18/01 A2969 RMK A01 T01750010  RH  033%=      5-min Rain = 0
KEA1 181939Z 27030G37KT 18/01 A2969 RMK A01 T01750007  RH  032%=      5-min Rain = 0
KEA1 181940Z 26030G36KT 17/00 A2969 RMK A01 T01720002  RH  032%=      5-min Rain = 0
KEA1 181941Z 26029G34KT 17/00 A2969 RMK A01 T01710003  RH  032%=      5-min Rain = 0
KEA1 181942Z 27027KT 17/01 A2969 RMK A01 T01720005  RH  032%=      5-min Rain = 0
KEA1 181943Z 26029G34KT 17/01 A2969 RMK A01 T01730006  RH  032%=      5-min Rain = 0
KEA1 181944Z 26031G36KT 17/01 A2969 RMK A01 T01720005  RH  032%=      5-min Rain = 0
KEA1 181945Z 25032G37KT 17/00 A2969 RMK A01 T01690001  RH  032%=      5-min Rain = 0
KEA1 181946Z 26032KT 17/M00 A2969 RMK A01 T01651001  RH  032%=      5-min Rain = 0
KEA1 181947Z 25029G35KT 16/M00 A2969 RMK A01 T01641001  RH  032%=      5-min Rain = 0
KEA1 181948Z 26028KT 17/00 A2968 RMK A01 T016500-0  RH  033%=      5-min Rain = 0
KEA1 181949Z 26029G34KT 17/M00 A2969 RMK A01 T01671002  RH  032%=      5-min Rain = 0
KEA1 181950Z 25024G35KT 17/M00 A2969 RMK A01 T01671001  RH  032%=      5-min Rain = 0
KEA1 181951Z 26028KT 17/00 A2968 RMK A01 T01720001  RH  031%=      5-min Rain = 0
KEA1 181952Z 26026G31KT 17/M00 A2968 RMK A01 T01721002  RH  031%=      5-min Rain = 0
KEA1 181953Z 26028G33KT 17/M00 A2968 RMK A01 T01721001  RH  031%=      5-min Rain = 0
KEA1 181954Z 25025G30KT 17/00 A2968 RMK A01 T017200-0  RH  031%=      5-min Rain = 0
KEA1 181955Z 25027G33KT 17/00 A2968 RMK A01 T01730002  RH  031%=      5-min Rain = 0
KEA1 181956Z 25027G34KT 17/M00 A2968 RMK A01 T01741001  RH  031%=      5-min Rain = 0
KEA1 181957Z 25031KT 17/M00 A2969 RMK A01 T01731003  RH  030%=      5-min Rain = 0
KEA1 181958Z 25031G36KT 17/M00 A2968 RMK A01 T01691003  RH  031%=      5-min Rain = 0
KEA1 181959Z 25029G35KT 17/M00 A2968 RMK A01 T01681001  RH  032%=      5-min Rain = 0
KEA1 182000Z 26030G36KT 17/M00 A2969 RMK A01 T01691001  RH  032%=      5-min Rain = 0
KEA1 182001Z 26026G34KT 17/M00 A2969 RMK A01 T01691001  RH  032%=      5-min Rain = 0
KEA1 182002Z 26028G33KT 17/00 A2969 RMK A01 T01690001  RH  032%=      5-min Rain = 0
KEA1 182003Z 25032G37KT 17/M00 A2968 RMK A01 T01681003  RH  031%=      5-min Rain = 0
KEA1 182004Z 26030G36KT 17/M01 A2969 RMK A01 T01661010  RH  030%=      5-min Rain = 0
KEA1 182005Z 26024G30KT 17/M01 A2969 RMK A01 T01661009  RH  030%=      5-min Rain = 0
KEA1 182006Z 25023G34KT 17/M00 A2969 RMK A01 T01671003  RH  031%=      5-min Rain = 0
KEA1 182007Z 25030G36KT 17/M01 A2969 RMK A01 T01671006  RH  031%=      5-min Rain = 0
KEA1 182008Z 26022G30KT 16/M01 A2969 RMK A01 T01641008  RH  031%=      5-min Rain = 0
KEA1 182009Z 26026KT 17/M01 A2968 RMK A01 T01661007  RH  031%=      5-min Rain = 0
KEA1 182010Z 26026G31KT 17/M01 A2968 RMK A01 T01661006  RH  031%=      5-min Rain = 0
KEA1 182011Z 25026G31KT 17/M00 A2968 RMK A01 T01671003  RH  031%=      5-min Rain = 0
KEA1 182012Z 24028KT 17/M00 A2968 RMK A01 T01671001  RH  032%=      5-min Rain = 0
KEA1 182013Z 25031G36KT 17/00 A2968 RMK A01 T01670000  RH  032%=      5-min Rain = 0
KEA1 182014Z 24028G34KT 17/00 A2968 RMK A01 T01680002  RH  033%=      5-min Rain = 0
KEA1 182015Z 24028KT 17/00 A2967 RMK A01 T01690003  RH  033%=      5-min Rain = 0
KEA1 182016Z 25023G31KT 17/00 A2968 RMK A01 T01690003  RH  032%=      5-min Rain = 0
KEA1 182017Z 27025G30KT 17/00 A2968 RMK A01 T01720003  RH  032%=      5-min Rain = 0
KEA1 182018Z 26030G36KT 18/M00 A2968 RMK A01 T01751003  RH  030%=      5-min Rain = 0
KEA1 182019Z 25030G35KT 17/M01 A2968 RMK A01 T01731007  RH  029%=      5-min Rain = 0
KEA1 182020Z 25029G38KT 17/M00 A2968 RMK A01 T01701003  RH  031%=      5-min Rain = 0
KEA1 182021Z 25021G26KT 17/00 A2968 RMK A01 T01710001  RH  031%=      5-min Rain = 0
KEA1 182022Z 25023G29KT 18/01 A2968 RMK A01 T01760005  RH  032%=      5-min Rain = 0
KEA1 182023Z 26031G38KT 18/00 A2968 RMK A01 T01790004  RH  031%=      5-min Rain = 0
KEA1 182024Z 26026KT 18/00 A2968 RMK A01 T017500-0  RH  031%=      5-min Rain = 0
KEA1 182025Z 25026KT 17/00 A2968 RMK A01 T01740002  RH  031%=      5-min Rain = 0
KEA1 182026Z 24026KT 18/01 A2968 RMK A01 T01750005  RH  032%=      5-min Rain = 0
KEA1 182027Z 25025G31KT 18/01 A2968 RMK A01 T01750005  RH  032%=      5-min Rain = 0
KEA1 182028Z 25028G34KT 17/01 A2968 RMK A01 T01740005  RH  032%=      5-min Rain = 0
KEA1 182029Z 24027KT 17/00 A2968 RMK A01 T01710004  RH  032%=      5-min Rain = 0
KEA1 182030Z 25029G35KT 17/00 A2968 RMK A01 T01700004  RH  033%=      5-min Rain = 0
KEA1 182031Z 25030KT 17/01 A2968 RMK A01 T01680005  RH  033%=      5-min Rain = 0
KEA1 182032Z 25025KT 17/01 A2968 RMK A01 T01710007  RH  033%=      5-min Rain = 0
KEA1 182033Z 25028KT 17/00 A2968 RMK A01 T01730002  RH  032%=      5-min Rain = 0
KEA1 182034Z 25024KT 17/00 A2968 RMK A01 T016900-0  RH  032%=      5-min Rain = 0
KEA1 182035Z 25024G29KT 17/00 A2968 RMK A01 T01670002  RH  032%=      5-min Rain = 0
KEA1 182036Z 25024KT 17/00 A2968 RMK A01 T01660000  RH  032%=      5-min Rain = 0
KEA1 182037Z 25025G31KT 17/M00 A2968 RMK A01 T01651002  RH  032%=      5-min Rain = 0
KEA1 182038Z 25026KT 17/00 A2968 RMK A01 T01660001  RH  033%=      5-min Rain = 0
KEA1 182039Z 25027G33KT 17/00 A2967 RMK A01 T01670002  RH  033%=      5-min Rain = 0
KEA1 182040Z 24027G33KT 16/00 A2967 RMK A01 T01640002  RH  033%=      5-min Rain = 0
KEA1 182041Z 24027G36KT 16/00 A2967 RMK A01 T01620003  RH  034%=      5-min Rain = 0
KEA1 182042Z 24029G35KT 16/01 A2967 RMK A01 T01640005  RH  034%=      5-min Rain = 0
KEA1 182043Z 24025KT 16/00 A2967 RMK A01 T01630004  RH  034%=      5-min Rain = 0
KEA1 182044Z 24028G34KT 16/00 A2967 RMK A01 T01630003  RH  034%=      5-min Rain = 0
KEA1 182045Z 26030KT 17/00 A2967 RMK A01 T01650004  RH  034%=      5-min Rain = 0
KEA1 182046Z 26029KT 16/00 A2967 RMK A01 T01640002  RH  033%=      5-min Rain = 0
KEA1 182047Z 26023G28KT 16/00 A2967 RMK A01 T01620003  RH  034%=      5-min Rain = 0
KEA1 182048Z 25030G36KT 17/00 A2967 RMK A01 T01650004  RH  033%=      5-min Rain = 0
KEA1 182049Z 25028KT 16/00 A2968 RMK A01 T01640001  RH  033%=      5-min Rain = 0
KEA1 182050Z 24025KT 16/00 A2967 RMK A01 T01620001  RH  033%=      5-min Rain = 0
KEA1 182051Z 25029KT 16/00 A2967 RMK A01 T016300-0  RH  033%=      5-min Rain = 0
KEA1 182052Z 25030G36KT 16/M00 A2967 RMK A01 T01631002  RH  033%=      5-min Rain = 0
KEA1 182053Z 25029KT 16/M00 A2967 RMK A01 T01631003  RH  032%=      5-min Rain = 0
KEA1 182054Z 25031G37KT 16/M00 A2967 RMK A01 T01621002  RH  033%=      5-min Rain = 0
KEA1 182055Z 25025KT 16/M00 A2967 RMK A01 T01601002  RH  033%=      5-min Rain = 0
KEA1 182056Z 25028G34KT 16/00 A2967 RMK A01 T01610000  RH  034%=      5-min Rain = 0
KEA1 182057Z 25022KT 16/00 A2967 RMK A01 T01610001  RH  034%=      5-min Rain = 0
KEA1 182058Z 26026G31KT 16/00 A2967 RMK A01 T01640001  RH  033%=      5-min Rain = 0
KEA1 182059Z 26027G36KT 17/M00 A2967 RMK A01 T01651003  RH  032%=      5-min Rain = 0
KEA1 182100Z 25030G35KT 16/M01 A2967 RMK A01 T01631006  RH  032%=      5-min Rain = 0
KEA1 182101Z 25030KT 16/M01 A2967 RMK A01 T01621006  RH  032%=      5-min Rain = 0
KEA1 182102Z 25025G30KT 16/M01 A2967 RMK A01 T01601006  RH  032%=      5-min Rain = 0
KEA1 182103Z 25030G35KT 16/M00 A2967 RMK A01 T01601004  RH  033%=      5-min Rain = 0
KEA1 182104Z 25025G30KT 16/M00 A2967 RMK A01 T01601003  RH  033%=      5-min Rain = 0
KEA1 182105Z 25024KT 16/M00 A2967 RMK A01 T01611002  RH  033%=      5-min Rain = 0
KEA1 182106Z 24028G36KT 16/M00 A2967 RMK A01 T01641003  RH  032%=      5-min Rain = 0
KEA1 182107Z 25028G33KT 16/M01 A2967 RMK A01 T01621006  RH  032%=      5-min Rain = 0
KEA1 182108Z 26031G37KT 16/M01 A2967 RMK A01 T01611006  RH  032%=      5-min Rain = 0
KEA1 182109Z 26030KT 16/M01 A2967 RMK A01 T01591007  RH  032%=      5-min Rain = 0
KEA1 182110Z 26026KT 16/M01 A2967 RMK A01 T01581006  RH  032%=      5-min Rain = 0
KEA1 182111Z 25025G31KT 16/M01 A2967 RMK A01 T01581007  RH  032%=      5-min Rain = 0
KEA1 182112Z 26026G32KT 16/M01 A2967 RMK A01 T01601008  RH  032%=      5-min Rain = 0
KEA1 182113Z 26026G33KT 16/M01 A2967 RMK A01 T01611011  RH  031%=      5-min Rain = 0
KEA1 182114Z 26026G32KT 16/M01 A2967 RMK A01 T01611013  RH  030%=      5-min Rain = 0
KEA1 182115Z 26022G27KT 16/M01 A2967 RMK A01 T01591013  RH  031%=      5-min Rain = 0
KEA1 182116Z 26025G32KT 16/M01 A2967 RMK A01 T01581013  RH  031%=      5-min Rain = 0
KEA1 182117Z 26026KT 16/M01 A2967 RMK A01 T01571014  RH  031%=      5-min Rain = 0
KEA1 182118Z 26023KT 16/M01 A2967 RMK A01 T01571014  RH  031%=      5-min Rain = 0
KEA1 182119Z 26025G30KT 16/M02 A2967 RMK A01 T01571015  RH  031%=      5-min Rain = 0
KEA1 182120Z 26028G33KT 16/M02 A2967 RMK A01 T01571019  RH  030%=      5-min Rain = 0
KEA1 182121Z 26028G36KT 16/M03 A2967 RMK A01 T01571027  RH  028%=      5-min Rain = 0
KEA1 182122Z 25028G33KT 16/M03 A2967 RMK A01 T01571029  RH  028%=      5-min Rain = 0
KEA1 182123Z 26029G35KT 16/M03 A2967 RMK A01 T01571031  RH  027%=      5-min Rain = 0
KEA1 182124Z 26030KT 16/M03 A2967 RMK A01 T01581033  RH  027%=      5-min Rain = 0
KEA1 182125Z 26023KT 16/M03 A2967 RMK A01 T01601031  RH  027%=      5-min Rain = 0
KEA1 182126Z 26028G34KT 16/M03 A2967 RMK A01 T01641030  RH  026%=      5-min Rain = 0
KEA1 182127Z 26029KT 16/M04 A2967 RMK A01 T01641036  RH  025%=      5-min Rain = 0
KEA1 182128Z 27026G33KT 16/M04 A2967 RMK A01 T01641038  RH  025%=      5-min Rain = 0
KEA1 182129Z 26025G35KT 17/M04 A2967 RMK A01 T01661036  RH  025%=      5-min Rain = 0
KEA1 182130Z 26025G34KT 17/M04 A2967 RMK A01 T01671037  RH  025%=      5-min Rain = 0
KEA1 182131Z 26027KT 17/M03 A2967 RMK A01 T01661034  RH  025%=      5-min Rain = 0
KEA1 182132Z 25030G36KT 17/M03 A2967 RMK A01 T01651031  RH  026%=      5-min Rain = 0
KEA1 182133Z 25028G33KT 17/M03 A2967 RMK A01 T01651031  RH  026%=      5-min Rain = 0
KEA1 182134Z 25023KT 17/M03 A2967 RMK A01 T01691029  RH  026%=      5-min Rain = 0
KEA1 182135Z 26029KT 17/M03 A2967 RMK A01 T01731031  RH  025%=      5-min Rain = 0
KEA1 182136Z 26028G35KT 17/M04 A2967 RMK A01 T01691038  RH  024%=      5-min Rain = 0
KEA1 182137Z 25029G37KT 17/M04 A2967 RMK A01 T01661039  RH  024%=      5-min Rain = 0
KEA1 182138Z 25028G33KT 16/M04 A2967 RMK A01 T01621042  RH  024%=      5-min Rain = 0
KEA1 182139Z 26029G34KT 16/M04 A2967 RMK A01 T01601042  RH  025%=      5-min Rain = 0
KEA1 182140Z 25027G35KT 16/M04 A2967 RMK A01 T01601044  RH  024%=      5-min Rain = 0
KEA1 182141Z 26026G31KT 16/M04 A2967 RMK A01 T01631043  RH  024%=      5-min Rain = 0
KEA1 182142Z 25025G30KT 16/M04 A2967 RMK A01 T01641043  RH  024%=      5-min Rain = 0
KEA1 182143Z 25028G33KT 17/M05 A2967 RMK A01 T01661045  RH  023%=      5-min Rain = 0
KEA1 182144Z 26030KT 16/M05 A2967 RMK A01 T01641047  RH  023%=      5-min Rain = 0
KEA1 182145Z 26030KT 16/M05 A2968 RMK A01 T01621050  RH  023%=      5-min Rain = 0
KEA1 182146Z 26025G30KT 16/M05 A2968 RMK A01 T01621049  RH  023%=      5-min Rain = 0
KEA1 182147Z 26029G34KT 16/M05 A2967 RMK A01 T01631051  RH  023%=      5-min Rain = 0
KEA1 182148Z 26027G32KT 16/M05 A2967 RMK A01 T01641049  RH  023%=      5-min Rain = 0
KEA1 182149Z 26023KT 17/M05 A2967 RMK A01 T01661047  RH  023%=      5-min Rain = 0
KEA1 182150Z 26028G34KT 17/M05 A2967 RMK A01 T01671051  RH  022%=      5-min Rain = 0
KEA1 182151Z 26028KT 16/M06 A2967 RMK A01 T01641062  RH  021%=      5-min Rain = 0
KEA1 182152Z 26029KT 16/M06 A2967 RMK A01 T01631060  RH  021%=      5-min Rain = 0
KEA1 182153Z 26028G35KT 16/M06 A2967 RMK A01 T01631058  RH  021%=      5-min Rain = 0
KEA1 182154Z 26032G38KT 16/M06 A2967 RMK A01 T01641058  RH  021%=      5-min Rain = 0
KEA1 182155Z 26029G36KT 16/M06 A2967 RMK A01 T01641057  RH  021%=      5-min Rain = 0
KEA1 182156Z 26032G38KT 17/M06 A2967 RMK A01 T01651056  RH  021%=      5-min Rain = 0
KEA1 182157Z 26032G38KT 17/M06 A2967 RMK A01 T01661059  RH  021%=      5-min Rain = 0
KEA1 182158Z 26031G38KT 16/M07 A2967 RMK A01 T01641065  RH  020%=      5-min Rain = 0
KEA1 182159Z 26026KT 16/M06 A2967 RMK A01 T01621063  RH  021%=      5-min Rain = 0
KEA1 182200Z 27031KT 16/M06 A2967 RMK A01 T01591063  RH  021%=      5-min Rain = 0
KEA1 182201Z 27029KT 16/M06 A2967 RMK A01 T01551063  RH  022%=      5-min Rain = 0
KEA1 182202Z 26029G34KT 15/M06 A2967 RMK A01 T01531061  RH  022%=      5-min Rain = 0
KEA1 182203Z 26030G35KT 15/M06 A2967 RMK A01 T01511060  RH  023%=      5-min Rain = 0
KEA1 182204Z 26024KT 15/M06 A2968 RMK A01 T01501058  RH  023%=      5-min Rain = 0
KEA1 182205Z 26024G29KT 15/M06 A2968 RMK A01 T01491057  RH  024%=      5-min Rain = 0
KEA1 182206Z 26026G31KT 15/M06 A2968 RMK A01 T01481057  RH  024%=      5-min Rain = 0
KEA1 182207Z 26028KT 15/M06 A2968 RMK A01 T01471056  RH  024%=      5-min Rain = 0
KEA1 182208Z 25024G29KT 15/M06 A2968 RMK A01 T01461056  RH  024%=      5-min Rain = 0
KEA1 182209Z 25022KT 15/M06 A2967 RMK A01 T01461055  RH  025%=      5-min Rain = 0
KEA1 182210Z 26019KT 15/M06 A2967 RMK A01 T01451055  RH  025%=      5-min Rain = 0
KEA1 182211Z 26020KT 15/M05 A2967 RMK A01 T01451054  RH  025%=      5-min Rain = 0
KEA1 182212Z 25023KT 15/M06 A2967 RMK A01 T01451055  RH  025%=      5-min Rain = 0
KEA1 182213Z 25022KT 15/M06 A2967 RMK A01 T01451056  RH  024%=      5-min Rain = 0
KEA1 182214Z 25021KT 15/M06 A2967 RMK A01 T01451056  RH  024%=      5-min Rain = 0
KEA1 182215Z 25022KT 15/M06 A2967 RMK A01 T01461058  RH  024%=      5-min Rain = 0
KEA1 182216Z 25022KT 15/M06 A2967 RMK A01 T01461062  RH  023%=      5-min Rain = 0
KEA1 182217Z 25026KT 15/M07 A2967 RMK A01 T01461067  RH  022%=      5-min Rain = 0
KEA1 182218Z 25026G32KT 15/M07 A2967 RMK A01 T01471073  RH  021%=      5-min Rain = 0
KEA1 182219Z 25027KT 15/M08 A2967 RMK A01 T01481076  RH  021%=      5-min Rain = 0
KEA1 182220Z 26025G32KT 15/M08 A2967 RMK A01 T01491075  RH  021%=      5-min Rain = 0
KEA1 182221Z 25029KT 15/M08 A2967 RMK A01 T01491078  RH  020%=      5-min Rain = 0
KEA1 182222Z 25026G35KT 15/M08 A2967 RMK A01 T01491081  RH  020%=      5-min Rain = 0
KEA1 182223Z 25033G38KT 15/M08 A2967 RMK A01 T01491082  RH  020%=      5-min Rain = 0
KEA1 182224Z 26027KT 15/M08 A2967 RMK A01 T01481080  RH  020%=      5-min Rain = 0
KEA1 182225Z 26025G32KT 15/M08 A2967 RMK A01 T01471078  RH  020%=      5-min Rain = 0
KEA1 182226Z 26028G34KT 15/M08 A2967 RMK A01 T01471077  RH  021%=      5-min Rain = 0
KEA1 182227Z 26027G32KT 15/M08 A2968 RMK A01 T01471076  RH  021%=      5-min Rain = 0
KEA1 182228Z 27028KT 15/M08 A2968 RMK A01 T01471075  RH  021%=      5-min Rain = 0
KEA1 182229Z 27028G33KT 15/M07 A2968 RMK A01 T01461074  RH  021%=      5-min Rain = 0
KEA1 182230Z 26031G37KT 15/M07 A2968 RMK A01 T01461074  RH  021%=      5-min Rain = 0
KEA1 182231Z 26028G33KT 15/M07 A2968 RMK A01 T01471073  RH  021%=      5-min Rain = 0
KEA1 182232Z 25025G31KT 15/M07 A2968 RMK A01 T01471071  RH  021%=      5-min Rain = 0
KEA1 182233Z 25028G33KT 15/M07 A2968 RMK A01 T01471069  RH  022%=      5-min Rain = 0
KEA1 182234Z 25033KT 15/M07 A2968 RMK A01 T01471067  RH  022%=      5-min Rain = 0
KEA1 182235Z 25027G33KT 15/M07 A2968 RMK A01 T01471065  RH  023%=      5-min Rain = 0
KEA1 182236Z 26032G37KT 15/M06 A2968 RMK A01 T01471062  RH  023%=      5-min Rain = 0
KEA1 182237Z 26027KT 15/M06 A2968 RMK A01 T01471062  RH  023%=      5-min Rain = 0
KEA1 182238Z 27027G34KT 15/M06 A2968 RMK A01 T01471063  RH  023%=      5-min Rain = 0
KEA1 182239Z 27028G34KT 15/M06 A2968 RMK A01 T01461059  RH  024%=      5-min Rain = 0
KEA1 182240Z 27029G34KT 15/M06 A2968 RMK A01 T01451055  RH  025%=      5-min Rain = 0
KEA1 182241Z 28027G35KT 15/M05 A2968 RMK A01 T01451052  RH  025%=      5-min Rain = 0
KEA1 182242Z 27031G39KT 15/M05 A2968 RMK A01 T01461053  RH  025%=      5-min Rain = 0
KEA1 182243Z 27029G39KT 15/M05 A2969 RMK A01 T01471050  RH  025%=      5-min Rain = 0
KEA1 182244Z 27030G36KT 15/M05 A2969 RMK A01 T01481052  RH  025%=      5-min Rain = 0
KEA1 182245Z 27029G34KT 15/M05 A2969 RMK A01 T01481051  RH  025%=      5-min Rain = 0
KEA1 182246Z 27030G37KT 15/M05 A2969 RMK A01 T01481051  RH  025%=      5-min Rain = 0
KEA1 182247Z 27032G38KT 15/M05 A2969 RMK A01 T01471051  RH  025%=      5-min Rain = 0
KEA1 182248Z 27033G39KT 15/M05 A2969 RMK A01 T01461053  RH  025%=      5-min Rain = 0
KEA1 182249Z 28035G42KT 14/M05 A2969 RMK A01 T01441054  RH  025%=      5-min Rain = 0
KEA1 182250Z 28028G36KT 14/M05 A2969 RMK A01 T01431052  RH  025%=      5-min Rain = 0
KEA1 182251Z 27030G35KT 14/M05 A2969 RMK A01 T01431050  RH  026%=      5-min Rain = 0
KEA1 182252Z 27029KT 14/M05 A2969 RMK A01 T01421049  RH  026%=      5-min Rain = 0
KEA1 182253Z 27027G36KT 14/M05 A2969 RMK A01 T01421048  RH  027%=      5-min Rain = 0
KEA1 182254Z 27027G32KT 14/M05 A2969 RMK A01 T01411047  RH  027%=      5-min Rain = 0
KEA1 182255Z 27025G30KT 14/M05 A2969 RMK A01 T01411045  RH  027%=      5-min Rain = 0
KEA1 182256Z 27030G35KT 14/M05 A2969 RMK A01 T01411046  RH  027%=      5-min Rain = 0
KEA1 182257Z 26032KT 14/M05 A2969 RMK A01 T01411048  RH  027%=      5-min Rain = 0
KEA1 182258Z 26027G34KT 14/M05 A2969 RMK A01 T01411047  RH  027%=      5-min Rain = 0
KEA1 182259Z 27026G33KT 14/M05 A2969 RMK A01 T01411046  RH  027%=      5-min Rain = 0
KEA1 182300Z 27025G31KT 14/M05 A2969 RMK A01 T01411046  RH  027%=      5-min Rain = 0
KEA1 182301Z 26027G32KT 14/M05 A2969 RMK A01 T01411045  RH  027%=      5-min Rain = 0
KEA1 182302Z 27028KT 14/M05 A2969 RMK A01 T01421047  RH  027%=      5-min Rain = 0
KEA1 182303Z 27024KT 14/M05 A2969 RMK A01 T01411048  RH  027%=      5-min Rain = 0
KEA1 182304Z 27025KT 14/M05 A2969 RMK A01 T01411046  RH  027%=      5-min Rain = 0
KEA1 182305Z 27029G35KT 14/M05 A2969 RMK A01 T01411045  RH  027%=      5-min Rain = 0
KEA1 182306Z 27029KT 14/M05 A2969 RMK A01 T01401046  RH  027%=      5-min Rain = 0
KEA1 182307Z 27028G33KT 14/M05 A2969 RMK A01 T01401046  RH  027%=      5-min Rain = 0
KEA1 182308Z 27029G34KT 14/M05 A2969 RMK A01 T01391046  RH  027%=      5-min Rain = 0
KEA1 182309Z 27030G35KT 14/M05 A2969 RMK A01 T01391047  RH  027%=      5-min Rain = 0
KEA1 182310Z 27023KT 14/M05 A2969 RMK A01 T01391047  RH  027%=      5-min Rain = 0
KEA1 182311Z 27027G32KT 14/M05 A2969 RMK A01 T01391047  RH  027%=      5-min Rain = 0
KEA1 182312Z 26028G34KT 14/M05 A2969 RMK A01 T01381050  RH  027%=      5-min Rain = 0
KEA1 182313Z 27030G37KT 14/M05 A2969 RMK A01 T01381052  RH  026%=      5-min Rain = 0
KEA1 182314Z 27026G31KT 14/M05 A2969 RMK A01 T01381051  RH  026%=      5-min Rain = 0
KEA1 182315Z 27023G29KT 14/M05 A2969 RMK A01 T01381049  RH  027%=      5-min Rain = 0
KEA1 182316Z 27027KT 14/M05 A2969 RMK A01 T01381048  RH  027%=      5-min Rain = 0
KEA1 182317Z 28024KT 14/M05 A2969 RMK A01 T01381050  RH  027%=      5-min Rain = 0
KEA1 182318Z 28026G32KT 14/M05 A2969 RMK A01 T01381050  RH  027%=      5-min Rain = 0
KEA1 182319Z 27029G35KT 14/M05 A2969 RMK A01 T01371048  RH  027%=      5-min Rain = 0
KEA1 182320Z 27028G33KT 14/M05 A2969 RMK A01 T01361048  RH  028%=      5-min Rain = 0
KEA1 182321Z 27026G33KT 14/M05 A2969 RMK A01 T01361047  RH  028%=      5-min Rain = 0
KEA1 182322Z 27026G34KT 14/M05 A2969 RMK A01 T01361047  RH  028%=      5-min Rain = 0
KEA1 182323Z 27033G39KT 14/M05 A2969 RMK A01 T01351048  RH  028%=      5-min Rain = 0
KEA1 182324Z 27027G33KT 14/M05 A2969 RMK A01 T01351049  RH  027%=      5-min Rain = 0
KEA1 182325Z 27027G32KT 14/M05 A297 RMK A01 T01361048  RH  028%=      5-min Rain = 0
KEA1 182326Z 27029G34KT 14/M05 A297 RMK A01 T01351047  RH  028%=      5-min Rain = 0
KEA1 182327Z 27024G29KT 14/M05 A2969 RMK A01 T01351045  RH  028%=      5-min Rain = 0
KEA1 182328Z 26025KT 13/M04 A297 RMK A01 T01341044  RH  029%=      5-min Rain = 0
KEA1 182329Z 27025G33KT 13/M04 A297 RMK A01 T01341044  RH  029%=      5-min Rain = 0
KEA1 182330Z 27028G33KT 13/M04 A297 RMK A01 T01331043  RH  029%=      5-min Rain = 0
KEA1 182331Z 27025KT 13/M04 A297 RMK A01 T01341043  RH  029%=      5-min Rain = 0
KEA1 182332Z 27022G30KT 13/M04 A2969 RMK A01 T01341041  RH  030%=      5-min Rain = 0
KEA1 182333Z 28023G29KT 13/M04 A297 RMK A01 T01331040  RH  030%=      5-min Rain = 0
KEA1 182334Z 27025G31KT 13/M04 A297 RMK A01 T01331041  RH  030%=      5-min Rain = 0
KEA1 182335Z 27023G31KT 13/M04 A2969 RMK A01 T01321041  RH  030%=      5-min Rain = 0
KEA1 182336Z 27022KT 13/M04 A297 RMK A01 T01321040  RH  030%=      5-min Rain = 0
KEA1 182337Z 27023KT 13/M04 A2969 RMK A01 T01321039  RH  030%=      5-min Rain = 0
KEA1 182338Z 28018G23KT 13/M04 A297 RMK A01 T01321039  RH  030%=      5-min Rain = 0
KEA1 182339Z 28020KT 13/M04 A297 RMK A01 T01311038  RH  031%=      5-min Rain = 0
KEA1 182340Z 28023G28KT 13/M04 A2969 RMK A01 T01301039  RH  030%=      5-min Rain = 0
KEA1 182341Z 28022KT 13/M04 A297 RMK A01 T01301040  RH  030%=      5-min Rain = 0
KEA1 182342Z 27025KT 13/M04 A297 RMK A01 T01301040  RH  030%=      5-min Rain = 0
KEA1 182343Z 27023KT 13/M04 A297 RMK A01 T01301040  RH  030%=      5-min Rain = 0
KEA1 182344Z 27023KT 13/M04 A297 RMK A01 T01301039  RH  030%=      5-min Rain = 0
KEA1 182345Z 27024KT 13/M04 A297 RMK A01 T01301040  RH  030%=      5-min Rain = 0
KEA1 182346Z 27021G26KT 13/M04 A297 RMK A01 T01291039  RH  031%=      5-min Rain = 0
KEA1 182347Z 27019KT 13/M04 A297 RMK A01 T01291038  RH  031%=      5-min Rain = 0
KEA1 182348Z 27019G25KT 13/M04 A297 RMK A01 T01281037  RH  031%=      5-min Rain = 0
KEA1 182349Z 27018KT 13/M04 A297 RMK A01 T01281039  RH  031%=      5-min Rain = 0
KEA1 182350Z 27021KT 13/M04 A297 RMK A01 T01281038  RH  031%=      5-min Rain = 0
KEA1 182351Z 27020G25KT 13/M04 A297 RMK A01 T01281039  RH  031%=      5-min Rain = 0
KEA1 182352Z 28022KT 13/M04 A297 RMK A01 T01281039  RH  031%=      5-min Rain = 0
KEA1 182353Z 27019KT 13/M04 A297 RMK A01 T01281039  RH  031%=      5-min Rain = 0
KEA1 182354Z 28021G28KT 13/M04 A2971 RMK A01 T01281038  RH  031%=      5-min Rain = 0
KEA1 182355Z 28029G41KT 13/M04 A2972 RMK A01 T01281039  RH  031%=      5-min Rain = 0
KEA1 182356Z 30027G40KT 13/M03 A2972 RMK A01 T01281033  RH  032%=      5-min Rain = 0
KEA1 182357Z 31028G36KT 13/M03 A2973 RMK A01 T01251025  RH  035%=      5-min Rain = 0
KEA1 182358Z 33026G32KT 12/M02 A2972 RMK A01 T01201019  RH  038%=      5-min Rain = 0
KEA1 182359Z 33031G39KT 12/M02 A2972 RMK A01 T01171015  RH  040%=      5-min Rain = 0
KEA1 190000Z 33029G38KT 12/M01 A2972 RMK A01 T01151014  RH  041%=      5-min Rain = 0
KEA1 190001Z 33036G41KT 11/M01 A2972 RMK A01 T01131013  RH  042%=      5-min Rain = 0
KEA1 190002Z 33031G40KT 11/M01 A2972 RMK A01 T01121012  RH  042%=      5-min Rain = 0
KEA1 190003Z 33026G33KT 11/M01 A2972 RMK A01 T01111012  RH  042%=      5-min Rain = 0
KEA1 190004Z 34028G34KT 11/M01 A2972 RMK A01 T01111012  RH  042%=      5-min Rain = 0
KEA1 190005Z 34029KT 11/M01 A2972 RMK A01 T01101012  RH  043%=      5-min Rain = 0
KEA1 190006Z 33028G36KT 11/M01 A2973 RMK A01 T01101011  RH  043%=      5-min Rain = 0
KEA1 190007Z 32027G37KT 11/M00 A2974 RMK A01 T01071004  RH  046%=      5-min Rain = 0
KEA1 190008Z 33029G35KT 10/00 A2974 RMK A01 T01020001  RH  050%=      5-min Rain = 0
KEA1 190009Z 32032G37KT 10/00 A2975 RMK A01 T00970004  RH  052%=      5-min Rain = 0
KEA1 190010Z 32029G37KT 09/01 A2975 RMK A01 T00930005  RH  054%=      5-min Rain = 0
KEA1 190011Z 32035G42KT 09/01 A2976 RMK A01 T00890007  RH  056%=      5-min Rain = 0
KEA1 190012Z 32034G39KT 09/01 A2976 RMK A01 T00870008  RH  058%=      5-min Rain = 0
KEA1 190013Z 33034G41KT 09/01 A2976 RMK A01 T00850009  RH  059%=      5-min Rain = 0
KEA1 190014Z 32033G40KT 08/01 A2976 RMK A01 T00830009  RH  059%=      5-min Rain = 0
KEA1 190015Z 32031G39KT 08/01 A2977 RMK A01 T00820009  RH  060%=      5-min Rain = 0
KEA1 190016Z 32031G41KT 08/01 A2977 RMK A01 T00810009  RH  060%=      5-min Rain = 0
KEA1 190017Z 33032G39KT 08/01 A2977 RMK A01 T00800009  RH  061%=      5-min Rain = 0
KEA1 190018Z 33030G35KT 08/01 A2977 RMK A01 T00800009  RH  061%=      5-min Rain = 0
KEA1 190019Z 33030G37KT 08/01 A2977 RMK A01 T00790009  RH  061%=      5-min Rain = 0
KEA1 190020Z 33031G38KT 08/01 A2978 RMK A01 T00790010  RH  061%=      5-min Rain = 0
KEA1 190021Z 33036KT 08/01 A2978 RMK A01 T00790010  RH  062%=      5-min Rain = 0
KEA1 190022Z 33033G42KT 08/01 A2978 RMK A01 T00780010  RH  062%=      5-min Rain = 0
KEA1 190023Z 33033G39KT 08/01 A2978 RMK A01 T00780010  RH  062%=      5-min Rain = 0
KEA1 190024Z 32031G36KT 08/01 A2978 RMK A01 T00780011  RH  062%=      5-min Rain = 0
KEA1 190025Z 33031G39KT 08/01 A2978 RMK A01 T00780011  RH  062%=      5-min Rain = 0
KEA1 190026Z 33033G39KT 08/01 A2978 RMK A01 T00770011  RH  063%=      5-min Rain = 0
KEA1 190027Z 33033G43KT 08/01 A2978 RMK A01 T00770011  RH  063%=      5-min Rain = 0
KEA1 190028Z 33036G41KT 08/01 A2978 RMK A01 T00770012  RH  063%=      5-min Rain = 0
KEA1 190029Z 33029G37KT 08/01 A2978 RMK A01 T00770012  RH  063%=      5-min Rain = 0
KEA1 190030Z 33028G33KT 08/01 A2979 RMK A01 T00770012  RH  064%=      5-min Rain = 0
KEA1 190031Z 33026G38KT 08/01 A2979 RMK A01 T00770012  RH  064%=      5-min Rain = 0
KEA1 190032Z 33034G43KT 08/01 A2979 RMK A01 T00770013  RH  064%=      5-min Rain = 0
KEA1 190033Z 32030G38KT 08/01 A298 RMK A01 T00760013  RH  064%=      5-min Rain = 0
KEA1 190034Z 32032G37KT 08/01 A298 RMK A01 T00750014  RH  065%=      5-min Rain = 0
KEA1 190035Z 32036KT 08/01 A298 RMK A01 T00750014  RH  065%=      5-min Rain = 0
KEA1 190036Z 33032G39KT 08/01 A2981 RMK A01 T00750014  RH  065%=      5-min Rain = 0
KEA1 190037Z 33031G39KT 07/01 A2981 RMK A01 T00740014  RH  066%=      5-min Rain = 0
KEA1 190038Z 33029G34KT 07/02 A2981 RMK A01 T00740015  RH  066%=      5-min Rain = 0
KEA1 190039Z 33025G30KT 07/02 A2981 RMK A01 T00730016  RH  067%=      5-min Rain = 0
KEA1 190040Z 33031G38KT 07/02 A2981 RMK A01 T00720018  RH  068%=      5-min Rain = 0
KEA1 190041Z 33032G37KT 07/02 A2981 RMK A01 T00710019  RH  069%=      5-min Rain = 0
KEA1 190042Z 32032KT 07/02 A2981 RMK A01 T00710020  RH  070%=      5-min Rain = 0
KEA1 190043Z 33030G36KT 07/02 A2981 RMK A01 T00700020  RH  071%=      5-min Rain = 0
KEA1 190044Z 33028G34KT 07/02 A2981 RMK A01 T00690021  RH  071%=      5-min Rain = 0
KEA1 190045Z 33025G34KT 07/02 A2981 RMK A01 T00690023  RH  072%=      5-min Rain = 0
KEA1 190046Z 33027G34KT 07/03 A2981 RMK A01 T00670025  RH  075%=      5-min Rain = 0
KEA1 190047Z 33028G36KT 07/03 A2981 RMK A01 T00650026  RH  076%=      5-min Rain = 0
KEA1 190048Z 34027G35KT 06/03 A2981 RMK A01 T00630026  RH  077%=      5-min Rain = 0
KEA1 190049Z 34027G32KT 06/03 A2981 RMK A01 T00620027  RH  078%=      5-min Rain = 0
KEA1 190050Z 34026G31KT 06/03 A2981 RMK A01 T00610027  RH  079%=      5-min Rain = 0
KEA1 190051Z 34028G34KT 06/03 A298 RMK A01 T00590027  RH  080%=      5-min Rain = 0
KEA1 190052Z 34031G36KT 06/03 A298 RMK A01 T00580027  RH  080%=      5-min Rain = 0
KEA1 190053Z 34027G33KT 06/03 A2981 RMK A01 T00580027  RH  080%=      5-min Rain = 0
KEA1 190054Z 34028KT 06/03 A2981 RMK A01 T00580027  RH  081%=      5-min Rain = 0
KEA1 190055Z 34024G29KT 06/03 A2981 RMK A01 T00570027  RH  081%=      5-min Rain = 0
KEA1 190056Z 33026G31KT 06/03 A2982 RMK A01 T00560027  RH  081%=      5-min Rain = 0
KEA1 190057Z 33026G33KT 06/03 A2982 RMK A01 T00570027  RH  081%=      5-min Rain = 0
KEA1 190058Z 33025G31KT 06/03 A2983 RMK A01 T00560026  RH  081%=      5-min Rain = 0
KEA1 190059Z 33024G29KT 06/03 A2983 RMK A01 T00560026  RH  081%=      5-min Rain = 0
KEA1 190100Z 33021G26KT 06/03 A2983 RMK A01 T00560027  RH  081%=      5-min Rain = 0
KEA1 190101Z 33026KT 06/03 A2984 RMK A01 T00560027  RH  082%=      5-min Rain = 0
KEA1 190102Z 33023G28KT 06/03 A2984 RMK A01 T00560027  RH  082%=      5-min Rain = 0
KEA1 190103Z 33023G29KT 06/03 A2984 RMK A01 T00560027  RH  082%=      5-min Rain = 0
KEA1 190104Z 33021G27KT 06/03 A2984 RMK A01 T00560026  RH  081%=      5-min Rain = 0
KEA1 190105Z 33025G30KT 06/03 A2984 RMK A01 T00560025  RH  081%=      5-min Rain = 0
KEA1 190106Z 33023G29KT 06/02 A2984 RMK A01 T00560024  RH  080%=      5-min Rain = 0
KEA1 190107Z 33026G32KT 06/02 A2984 RMK A01 T00550024  RH  080%=      5-min Rain = 0
KEA1 190108Z 33022G30KT 06/03 A2984 RMK A01 T00550025  RH  081%=      5-min Rain = 0
KEA1 190109Z 32026G31KT 05/03 A2985 RMK A01 T00540026  RH  082%=      5-min Rain = 0
KEA1 190110Z 32028G34KT 05/02 A2985 RMK A01 T00530024  RH  081%=      5-min Rain = 0
KEA1 190111Z 32025G30KT 05/02 A2985 RMK A01 T00520022  RH  081%=      5-min Rain = 0
KEA1 190112Z 33023KT 05/02 A2985 RMK A01 T00510021  RH  081%=      5-min Rain = 0
KEA1 190113Z 32024G29KT 05/02 A2985 RMK A01 T00500021  RH  082%=      5-min Rain = 0
KEA1 190114Z 32027G33KT 05/02 A2985 RMK A01 T00490022  RH  082%=      5-min Rain = 0
KEA1 190115Z 33024G29KT 05/02 A2986 RMK A01 T00480022  RH  083%=      5-min Rain = 0
KEA1 190116Z 32027G32KT 05/02 A2986 RMK A01 T00480022  RH  083%=      5-min Rain = 0
KEA1 190117Z 32027G35KT 05/02 A2986 RMK A01 T00470022  RH  084%=      5-min Rain = 0
KEA1 190118Z 33029G39KT 05/02 A2986 RMK A01 T00460021  RH  084%=      5-min Rain = 0
KEA1 190119Z 32027G36KT 05/02 A2986 RMK A01 T00450020  RH  084%=      5-min Rain = 0
KEA1 190120Z 33025G30KT 04/02 A2986 RMK A01 T00430020  RH  085%=      5-min Rain = 0
KEA1 190121Z 33026KT 04/02 A2986 RMK A01 T00430021  RH  086%=      5-min Rain = 0
KEA1 190122Z 33027G33KT 04/02 A2986 RMK A01 T00420021  RH  086%=      5-min Rain = 0
KEA1 190123Z 33024G29KT 04/02 A2987 RMK A01 T00410021  RH  086%=      5-min Rain = 0
KEA1 190124Z 33021KT 04/02 A2987 RMK A01 T00420022  RH  087%=      5-min Rain = 0
KEA1 190125Z 33019KT 04/02 A2987 RMK A01 T00410023  RH  088%=      5-min Rain = 0
KEA1 190126Z 32019G28KT 04/02 A2987 RMK A01 T00410024  RH  089%=      5-min Rain = 0
KEA1 190127Z 32021G28KT 04/02 A2987 RMK A01 T00410023  RH  089%=      5-min Rain = 0
KEA1 190128Z 32028G33KT 04/02 A2988 RMK A01 T00400023  RH  088%=      5-min Rain = 0
KEA1 190129Z 32027G34KT 04/02 A2987 RMK A01 T00400022  RH  088%=      5-min Rain = 0
KEA1 190130Z 33025G33KT 04/02 A2988 RMK A01 T00400021  RH  088%=      5-min Rain = 0
KEA1 190131Z 32022KT 04/02 A2988 RMK A01 T00400022  RH  089%=      5-min Rain = 0
KEA1 190132Z 32022G27KT 04/02 A2988 RMK A01 T00390023  RH  089%=      5-min Rain = 0
KEA1 190133Z 32019KT 04/02 A2988 RMK A01 T00390023  RH  089%=      5-min Rain = 0
KEA1 190134Z 32021G26KT 04/02 A2988 RMK A01 T00380023  RH  090%=      5-min Rain = 0
KEA1 190135Z 32023KT 04/02 A2988 RMK A01 T00380023  RH  090%=      5-min Rain = 0
KEA1 190136Z 32025G31KT 04/02 A2988 RMK A01 T00380023  RH  090%=      5-min Rain = 0
KEA1 190137Z 32029KT 04/02 A2988 RMK A01 T00380023  RH  090%=      5-min Rain = 0
KEA1 190138Z 32028KT 04/02 A2988 RMK A01 T00370021  RH  089%=      5-min Rain = 0
KEA1 190139Z 32026G31KT 04/02 A2988 RMK A01 T00370021  RH  089%=      5-min Rain = 0
KEA1 190140Z 33024G30KT 04/02 A2988 RMK A01 T00370021  RH  089%=      5-min Rain = 0
KEA1 190141Z 32027G34KT 04/02 A2988 RMK A01 T00370021  RH  090%=      5-min Rain = 0
KEA1 190142Z 33027G32KT 04/02 A2988 RMK A01 T00370021  RH  090%=      5-min Rain = 0
KEA1 190143Z 33026G33KT 04/02 A2989 RMK A01 T00370022  RH  090%=      5-min Rain = 0
KEA1 190144Z 32027G32KT 04/02 A2989 RMK A01 T00370021  RH  090%=      5-min Rain = 0
KEA1 190145Z 33025G33KT 04/02 A2989 RMK A01 T00370021  RH  089%=      5-min Rain = 0
KEA1 190146Z 33024KT 04/02 A2989 RMK A01 T00370021  RH  089%=      5-min Rain = 0
KEA1 190147Z 33024KT 04/02 A2989 RMK A01 T00370022  RH  090%=      5-min Rain = 0
KEA1 190148Z 32022G27KT 04/02 A2989 RMK A01 T00380023  RH  090%=      5-min Rain = 0
KEA1 190149Z 33024KT 04/02 A2989 RMK A01 T00380023  RH  090%=      5-min Rain = 0
KEA1 190150Z 32022G29KT 04/02 A2989 RMK A01 T00380023  RH  090%=      5-min Rain = 0
KEA1 190151Z 32022G27KT 04/02 A2989 RMK A01 T00380023  RH  090%=      5-min Rain = 0
KEA1 190152Z 33025G30KT 04/02 A2989 RMK A01 T00390023  RH  090%=      5-min Rain = 0
KEA1 190153Z 32024G29KT 04/02 A2989 RMK A01 T00390023  RH  089%=      5-min Rain = 0
KEA1 190154Z 33021G30KT 04/02 A2989 RMK A01 T00400022  RH  089%=      5-min Rain = 0
KEA1 190155Z 33021G28KT 04/02 A2989 RMK A01 T00400023  RH  089%=      5-min Rain = 0
KEA1 190156Z 33022G29KT 04/02 A2989 RMK A01 T00400023  RH  089%=      5-min Rain = 0
KEA1 190157Z 33022G28KT 04/02 A2989 RMK A01 T00400023  RH  089%=      5-min Rain = 0
KEA1 190158Z 33024G29KT 04/02 A2989 RMK A01 T00400022  RH  088%=      5-min Rain = 0
KEA1 190159Z 33024G32KT 04/02 A2989 RMK A01 T00400022  RH  088%=      5-min Rain = 0
KEA1 190200Z 33023G31KT 04/02 A2989 RMK A01 T00410021  RH  087%=      5-min Rain = 0
KEA1 190201Z 33022KT 04/02 A2989 RMK A01 T00410020  RH  087%=      5-min Rain = 0
KEA1 190202Z 33019G25KT 04/02 A2989 RMK A01 T00410021  RH  087%=      5-min Rain = 0
KEA1 190203Z 33022KT 04/02 A2989 RMK A01 T00410022  RH  088%=      5-min Rain = 0
KEA1 190204Z 33022G33KT 04/02 A299 RMK A01 T00400021  RH  087%=      5-min Rain = 0
KEA1 190205Z 33027KT 04/02 A2989 RMK A01 T00400020  RH  086%=      5-min Rain = 0
KEA1 190206Z 33026G31KT 04/02 A2989 RMK A01 T00410019  RH  086%=      5-min Rain = 0
KEA1 190207Z 33025G33KT 04/02 A2989 RMK A01 T00410018  RH  085%=      5-min Rain = 0
KEA1 190208Z 33025G32KT 04/02 A299 RMK A01 T00410018  RH  085%=      5-min Rain = 0
KEA1 190209Z 33026G31KT 04/02 A299 RMK A01 T00410018  RH  085%=      5-min Rain = 0
KEA1 190210Z 33025G33KT 04/02 A299 RMK A01 T00410017  RH  085%=      5-min Rain = 0
KEA1 190211Z 33019G25KT 04/02 A299 RMK A01 T00410018  RH  085%=      5-min Rain = 0
KEA1 190212Z 33022KT 04/02 A299 RMK A01 T00400019  RH  086%=      5-min Rain = 0
KEA1 190213Z 33022G27KT 04/02 A299 RMK A01 T00400019  RH  086%=      5-min Rain = 0
KEA1 190214Z 33022KT 04/02 A299 RMK A01 T00400019  RH  086%=      5-min Rain = 0
KEA1 190215Z 33023G28KT 04/02 A2991 RMK A01 T00400018  RH  086%=      5-min Rain = 0
KEA1 190216Z 33026G31KT 04/02 A299 RMK A01 T00400018  RH  086%=      5-min Rain = 0
KEA1 190217Z 33028KT 04/02 A299 RMK A01 T00400017  RH  085%=      5-min Rain = 0
KEA1 190218Z 33025G30KT 04/02 A2991 RMK A01 T00400016  RH  085%=      5-min Rain = 0
KEA1 190219Z 33022G28KT 04/02 A2991 RMK A01 T00390017  RH  085%=      5-min Rain = 0
KEA1 190220Z 33025G30KT 04/02 A2991 RMK A01 T00390017  RH  086%=      5-min Rain = 0
KEA1 190221Z 33024G31KT 04/02 A2991 RMK A01 T00380016  RH  085%=      5-min Rain = 0
KEA1 190222Z 33025G31KT 04/02 A2991 RMK A01 T00380017  RH  086%=      5-min Rain = 0
KEA1 190223Z 33022G28KT 04/02 A2991 RMK A01 T00380016  RH  086%=      5-min Rain = 0
KEA1 190224Z 33026G33KT 04/02 A2991 RMK A01 T00380017  RH  086%=      5-min Rain = 0
KEA1 190225Z 33023G28KT 04/02 A2991 RMK A01 T00370016  RH  086%=      5-min Rain = 0
KEA1 190226Z 33024G30KT 04/02 A2992 RMK A01 T00370017  RH  086%=      5-min Rain = 0
KEA1 190227Z 33025G33KT 04/02 A2992 RMK A01 T00370015  RH  086%=      5-min Rain = 0
KEA1 190228Z 33027G32KT 04/02 A2992 RMK A01 T00380015  RH  085%=      5-min Rain = 0
KEA1 190229Z 33023KT 04/02 A2992 RMK A01 T00370015  RH  085%=      5-min Rain = 0
KEA1 190230Z 33026G31KT 04/02 A2992 RMK A01 T00370016  RH  086%=      5-min Rain = 0
KEA1 190231Z 33021G26KT 04/02 A2992 RMK A01 T00370016  RH  086%=      5-min Rain = 0
KEA1 190232Z 33021KT 04/02 A2993 RMK A01 T00360016  RH  087%=      5-min Rain = 0
KEA1 190233Z 34023KT 04/02 A2992 RMK A01 T00360016  RH  087%=      5-min Rain = 0
KEA1 190234Z 33025G31KT 04/02 A2993 RMK A01 T00360016  RH  087%=      5-min Rain = 0
KEA1 190235Z 34025G32KT 04/02 A2993 RMK A01 T00360015  RH  086%=      5-min Rain = 0
KEA1 190236Z 33028G33KT 04/01 A2993 RMK A01 T00360013  RH  085%=      5-min Rain = 0
KEA1 190237Z 33024KT 04/01 A2993 RMK A01 T00360013  RH  085%=      5-min Rain = 0
KEA1 190238Z 34021KT 04/01 A2993 RMK A01 T00360013  RH  085%=      5-min Rain = 0
KEA1 190239Z 34025G31KT 04/01 A2993 RMK A01 T00350013  RH  086%=      5-min Rain = 0
KEA1 190240Z 34023G29KT 04/01 A2993 RMK A01 T00350012  RH  085%=      5-min Rain = 0
KEA1 190241Z 33023G29KT 03/01 A2993 RMK A01 T00340012  RH  085%=      5-min Rain = 0
KEA1 190242Z 34028KT 03/01 A2993 RMK A01 T00340011  RH  085%=      5-min Rain = 0
KEA1 190243Z 33022KT 03/01 A2994 RMK A01 T00340011  RH  085%=      5-min Rain = 0
KEA1 190244Z 34025G30KT 03/01 A2994 RMK A01 T00340011  RH  085%=      5-min Rain = 0
KEA1 190245Z 33025G31KT 03/01 A2994 RMK A01 T00340010  RH  085%=      5-min Rain = 0
KEA1 190246Z 34026G33KT 03/01 A2994 RMK A01 T00340010  RH  084%=      5-min Rain = 0
KEA1 190247Z 33027G33KT 03/01 A2994 RMK A01 T00340009  RH  084%=      5-min Rain = 0
KEA1 190248Z 34024G29KT 03/01 A2994 RMK A01 T00340008  RH  083%=      5-min Rain = 0
KEA1 190249Z 33021G28KT 03/01 A2994 RMK A01 T00330008  RH  084%=      5-min Rain = 0
KEA1 190250Z 33022KT 03/01 A2994 RMK A01 T00320009  RH  084%=      5-min Rain = 0
KEA1 190251Z 33025G31KT 03/01 A2994 RMK A01 T00320009  RH  085%=      5-min Rain = 0
KEA1 190252Z 34023G28KT 03/01 A2995 RMK A01 T00320007  RH  084%=      5-min Rain = 0
KEA1 190253Z 34029G35KT 03/01 A2994 RMK A01 T00320007  RH  083%=      5-min Rain = 0
KEA1 190254Z 34028KT 03/01 A2995 RMK A01 T00320006  RH  083%=      5-min Rain = 0
KEA1 190255Z 34026G32KT 03/01 A2995 RMK A01 T00320006  RH  083%=      5-min Rain = 0
KEA1 190256Z 34022KT 03/01 A2995 RMK A01 T00320006  RH  083%=      5-min Rain = 0
KEA1 190257Z 33021G28KT 03/01 A2995 RMK A01 T00320006  RH  083%=      5-min Rain = 0
KEA1 190258Z 34031KT 03/01 A2995 RMK A01 T00310006  RH  083%=      5-min Rain = 0
KEA1 190259Z 34028KT 03/00 A2996 RMK A01 T00310004  RH  082%=      5-min Rain = 0
KEA1 190300Z 34023G28KT 03/00 A2996 RMK A01 T00300004  RH  083%=      5-min Rain = 0
KEA1 190301Z 34029G34KT 03/00 A2996 RMK A01 T00290004  RH  084%=      5-min Rain = 0
KEA1 190302Z 34028G33KT 03/00 A2996 RMK A01 T00290003  RH  083%=      5-min Rain = 0
KEA1 190303Z 34025KT 03/00 A2996 RMK A01 T00280003  RH  084%=      5-min Rain = 0
KEA1 190304Z 34022G28KT 03/00 A2997 RMK A01 T00270004  RH  085%=      5-min Rain = 0
KEA1 190305Z 34029G35KT 03/00 A2997 RMK A01 T00260004  RH  086%=      5-min Rain = 0
KEA1 190306Z 34031G40KT 03/00 A2997 RMK A01 T00260004  RH  086%=      5-min Rain = 0
KEA1 190307Z 34034KT 03/00 A2997 RMK A01 T00250002  RH  085%=      5-min Rain = 0
KEA1 190308Z 34030G38KT 02/00 A2997 RMK A01 T00240002  RH  085%=      5-min Rain = 0
KEA1 190309Z 33029KT 02/00 A2997 RMK A01 T00230002  RH  086%=      5-min Rain = 0
KEA1 190310Z 34033G39KT 02/00 A2997 RMK A01 T00220002  RH  086%=      5-min Rain = 0
KEA1 190311Z 34031G36KT 02/00 A2998 RMK A01 T00200000  RH  087%=      5-min Rain = 0
KEA1 190312Z 34033G38KT 02/00 A2998 RMK A01 T001800-0  RH  088%=      5-min Rain = 0
KEA1 190313Z 34030KT 02/00 A2998 RMK A01 T001600-0  RH  089%=      5-min Rain = 0
KEA1 190314Z 34026KT 01/M00 A2998 RMK A01 T00141001  RH  090%=      5-min Rain = 0
KEA1 190315Z 34027G33KT 01/00 A2998 RMK A01 T001300-0  RH  091%=      5-min Rain = 0
KEA1 190316Z 34029G37KT 01/M00 A2999 RMK A01 T00121001  RH  091%=      5-min Rain = 0
KEA1 190317Z 34022KT 01/00 A2999 RMK A01 T001200-0  RH  092%=      5-min Rain = 0
KEA1 190318Z 33025G30KT 01/00 A2999 RMK A01 T001100-0  RH  092%=      5-min Rain = 0
KEA1 190319Z 34027G34KT 01/00 A2999 RMK A01 T00110000  RH  093%=      5-min Rain = 0
KEA1 190320Z 34024KT 01/00 A2999 RMK A01 T001000-0  RH  093%=      5-min Rain = 0
KEA1 190321Z 33021G26KT 01/00 A2999 RMK A01 T001000-0  RH  093%=      5-min Rain = 0
KEA1 190322Z 33024G32KT 01/00 A2999 RMK A01 T00100000  RH  093%=      5-min Rain = 0
KEA1 190323Z 34026KT 01/00 A30 RMK A01 T001000-0  RH  093%=      5-min Rain = 0
KEA1 190324Z 34025G32KT 01/M00 A30 RMK A01 T00091001  RH  093%=      5-min Rain = 0
KEA1 190325Z 33027KT 01/M00 A30 RMK A01 T00091001  RH  093%=      5-min Rain = 0
KEA1 190326Z 33024KT 01/M00 A30 RMK A01 T00091002  RH  093%=      5-min Rain = 0
KEA1 190327Z 33025G31KT 01/M00 A30 RMK A01 T00081002  RH  093%=      5-min Rain = 0
KEA1 190328Z 33026G33KT 01/M00 A30 RMK A01 T00081002  RH  093%=      5-min Rain = 0
KEA1 190329Z 34027G33KT 01/M00 A30 RMK A01 T00071003  RH  093%=      5-min Rain = 0
KEA1 190330Z 34029G34KT 01/M00 A30 RMK A01 T00071003  RH  093%=      5-min Rain = 0
KEA1 190331Z 34025G31KT 01/M00 A30 RMK A01 T00071003  RH  093%=      5-min Rain = 0
KEA1 190332Z 34025G32KT 01/M00 A3001 RMK A01 T00061003  RH  093%=      5-min Rain = 0
KEA1 190333Z 35028G33KT 01/M00 A30 RMK A01 T00061003  RH  094%=      5-min Rain = 0
KEA1 190334Z 35031G40KT 01/M00 A30 RMK A01 T00061004  RH  094%=      5-min Rain = 0.01
KEA1 190335Z 35029G34KT 01/M00 A30 RMK A01 T00061004  RH  093%=      5-min Rain = 0
KEA1 190336Z 35029KT 01/M01 A3001 RMK A01 T00051005  RH  093%=      5-min Rain = 0
KEA1 190337Z 34031G38KT 01/M01 A3001 RMK A01 T00051005  RH  093%=      5-min Rain = 0
KEA1 190338Z 35029G37KT 01/M01 A3001 RMK A01 T00051005  RH  093%=      5-min Rain = 0
KEA1 190339Z 35029G34KT 01/M01 A3001 RMK A01 T00051005  RH  093%=      5-min Rain = 0
KEA1 190340Z 35028KT 01/M01 A3001 RMK A01 T00051006  RH  092%=      5-min Rain = 0
KEA1 190341Z 35022G28KT 01/M01 A3001 RMK A01 T00051006  RH  093%=      5-min Rain = 0
KEA1 190342Z 35021G27KT 01/M01 A3001 RMK A01 T00051005  RH  093%=      5-min Rain = 0
KEA1 190343Z 35023G29KT 01/M01 A3001 RMK A01 T00051005  RH  093%=      5-min Rain = 0
KEA1 190344Z 34024KT 00/M01 A3001 RMK A01 T00041005  RH  093%=      5-min Rain = 0
KEA1 190345Z 35026G31KT 00/M01 A3001 RMK A01 T00041005  RH  093%=      5-min Rain = 0
KEA1 190346Z 35025G30KT 00/M01 A3001 RMK A01 T00041006  RH  093%=      5-min Rain = 0
KEA1 190347Z 35021G27KT 01/M01 A3002 RMK A01 T00051005  RH  093%=      5-min Rain = 0
KEA1 190348Z 35024KT 01/M01 A3001 RMK A01 T00051006  RH  093%=      5-min Rain = 0
KEA1 190349Z 35023KT 01/M01 A3002 RMK A01 T00051005  RH  093%=      5-min Rain = 0
KEA1 190350Z 35018KT 00/M01 A3002 RMK A01 T00041006  RH  093%=      5-min Rain = 0
KEA1 190351Z 34021KT 00/M01 A3002 RMK A01 T00041005  RH  093%=      5-min Rain = 0
KEA1 190352Z 35020KT 01/M01 A3002 RMK A01 T00051005  RH  093%=      5-min Rain = 0
KEA1 190353Z 34017KT 00/M01 A3002 RMK A01 T00041005  RH  093%=      5-min Rain = 0
KEA1 190354Z 34017KT 00/M01 A3002 RMK A01 T00041005  RH  094%=      5-min Rain = 0
KEA1 190355Z 34021G26KT 00/M01 A3002 RMK A01 T00041005  RH  094%=      5-min Rain = 0
KEA1 190356Z 34018G23KT 00/M01 A3002 RMK A01 T00041005  RH  094%=      5-min Rain = 0
KEA1 190357Z 34019KT 00/M01 A3002 RMK A01 T00041005  RH  094%=      5-min Rain = 0
KEA1 190358Z 34017KT 00/M01 A3003 RMK A01 T00041005  RH  094%=      5-min Rain = 0
KEA1 190359Z 34015KT 00/M00 A3003 RMK A01 T00041004  RH  094%=      5-min Rain = 0
KEA1 190400Z 34017KT 00/M00 A3003 RMK A01 T00041004  RH  094%=      5-min Rain = 0
KEA1 190401Z 34016KT 00/M00 A3003 RMK A01 T00041004  RH  094%=      5-min Rain = 0
KEA1 190402Z 34019G24KT 00/M00 A3003 RMK A01 T00041004  RH  095%=      5-min Rain = 0
KEA1 190403Z 34020KT 00/M00 A3003 RMK A01 T00041004  RH  095%=      5-min Rain = 0
KEA1 190404Z 34019KT 00/M00 A3003 RMK A01 T00041004  RH  094%=      5-min Rain = 0
KEA1 190405Z 34019KT 01/M00 A3003 RMK A01 T00051004  RH  094%=      5-min Rain = 0
KEA1 190406Z 34019KT 00/M00 A3003 RMK A01 T00041004  RH  094%=      5-min Rain = 0
KEA1 190407Z 34022KT 01/M00 A3003 RMK A01 T00051004  RH  094%=      5-min Rain = 0
KEA1 190408Z 34021KT 01/M00 A3003 RMK A01 T00051004  RH  094%=      5-min Rain = 0
KEA1 190409Z 34020KT 01/M00 A3003 RMK A01 T00051004  RH  094%=      5-min Rain = 0
KEA1 190410Z 34018G23KT 01/M00 A3004 RMK A01 T00051004  RH  094%=      5-min Rain = 0
KEA1 190411Z 34016G21KT 01/M00 A3003 RMK A01 T00051004  RH  094%=      5-min Rain = 0
KEA1 190412Z 34018KT 01/M00 A3003 RMK A01 T00051003  RH  094%=      5-min Rain = 0
KEA1 190413Z 33016KT 01/M00 A3004 RMK A01 T00051004  RH  094%=      5-min Rain = 0
KEA1 190414Z 34020KT 01/M00 A3004 RMK A01 T00051003  RH  094%=      5-min Rain = 0
KEA1 190415Z 34020KT 01/M00 A3004 RMK A01 T00051003  RH  094%=      5-min Rain = 0
KEA1 190416Z 34018KT 01/M00 A3004 RMK A01 T00051003  RH  094%=      5-min Rain = 0
KEA1 190417Z 33020KT 01/M00 A3004 RMK A01 T00061003  RH  094%=      5-min Rain = 0
KEA1 190418Z 34019KT 01/M00 A3004 RMK A01 T00061003  RH  094%=      5-min Rain = 0
KEA1 190419Z 34020KT 01/M00 A3004 RMK A01 T00061003  RH  094%=      5-min Rain = 0
KEA1 190420Z 34016G21KT 01/M00 A3004 RMK A01 T00071003  RH  093%=      5-min Rain = 0
KEA1 190421Z 34015KT 01/M00 A3004 RMK A01 T00071003  RH  093%=      5-min Rain = 0
KEA1 190422Z 33016KT 01/M00 A3005 RMK A01 T00071002  RH  094%=      5-min Rain = 0
KEA1 190423Z 34016KT 01/M00 A3004 RMK A01 T00071002  RH  094%=      5-min Rain = 0
KEA1 190424Z 33016KT 01/M00 A3005 RMK A01 T00071002  RH  094%=      5-min Rain = 0
KEA1 190425Z 33016KT 01/M00 A3005 RMK A01 T00071002  RH  094%=      5-min Rain = 0
KEA1 190426Z 33016G21KT 01/M00 A3005 RMK A01 T00071002  RH  094%=      5-min Rain = 0
KEA1 190427Z 33016G21KT 01/M00 A3005 RMK A01 T00071002  RH  094%=      5-min Rain = 0
KEA1 190428Z 33016KT 01/M00 A3005 RMK A01 T00071002  RH  094%=      5-min Rain = 0
KEA1 190429Z 33014KT 01/M00 A3005 RMK A01 T00071002  RH  094%=      5-min Rain = 0
KEA1 190430Z 34013KT 01/M00 A3005 RMK A01 T00071002  RH  094%=      5-min Rain = 0
KEA1 190431Z 33016G21KT 01/M00 A3005 RMK A01 T00081001  RH  094%=      5-min Rain = 0
KEA1 190432Z 33016KT 01/M00 A3005 RMK A01 T00071001  RH  094%=      5-min Rain = 0
KEA1 190433Z 34017KT 01/M00 A3005 RMK A01 T00071001  RH  094%=      5-min Rain = 0
KEA1 190434Z 33016KT 01/M00 A3005 RMK A01 T00071002  RH  094%=      5-min Rain = 0
KEA1 190435Z 33015KT 01/M00 A3005 RMK A01 T00071002  RH  094%=      5-min Rain = 0
KEA1 190436Z 34016G22KT 01/M00 A3005 RMK A01 T00071002  RH  094%=      5-min Rain = 0
KEA1 190437Z 33015KT 01/M00 A3005 RMK A01 T00071002  RH  094%=      5-min Rain = 0
KEA1 190438Z 33014KT 01/M00 A3005 RMK A01 T00071002  RH  094%=      5-min Rain = 0
KEA1 190439Z 33015KT 01/M00 A3005 RMK A01 T00071001  RH  094%=      5-min Rain = 0
KEA1 190440Z 33013KT 01/M00 A3006 RMK A01 T00071002  RH  094%=      5-min Rain = 0
KEA1 190441Z 34016KT 01/M00 A3006 RMK A01 T00071001  RH  094%=      5-min Rain = 0
KEA1 190442Z 33014KT 01/M00 A3006 RMK A01 T00071001  RH  094%=      5-min Rain = 0
KEA1 190443Z 33014KT 01/M00 A3006 RMK A01 T00071001  RH  095%=      5-min Rain = 0
KEA1 190444Z 33016KT 01/M00 A3006 RMK A01 T00071001  RH  095%=      5-min Rain = 0
KEA1 190445Z 33015KT 01/M00 A3006 RMK A01 T00071001  RH  095%=      5-min Rain = 0
KEA1 190446Z 33015KT 01/M00 A3006 RMK A01 T00061001  RH  095%=      5-min Rain = 0
KEA1 190447Z 33015KT 01/M00 A3006 RMK A01 T00061001  RH  095%=      5-min Rain = 0
KEA1 190448Z 33012KT 01/M00 A3006 RMK A01 T00061001  RH  095%=      5-min Rain = 0
KEA1 190449Z 33012KT 01/M00 A3006 RMK A01 T00061001  RH  095%=      5-min Rain = 0
KEA1 190450Z 33014KT 01/M00 A3006 RMK A01 T00071001  RH  095%=      5-min Rain = 0
KEA1 190451Z 33013KT 01/M00 A3006 RMK A01 T00061001  RH  095%=      5-min Rain = 0
KEA1 190452Z 33014KT 01/M00 A3006 RMK A01 T00061001  RH  095%=      5-min Rain = 0
KEA1 190453Z 33013KT 01/M00 A3006 RMK A01 T00061001  RH  095%=      5-min Rain = 0
KEA1 190454Z 33011KT 01/M00 A3007 RMK A01 T00061001  RH  095%=      5-min Rain = 0
KEA1 190455Z 33013KT 01/M00 A3007 RMK A01 T00061001  RH  095%=      5-min Rain = 0
KEA1 190456Z 33013KT 01/M00 A3007 RMK A01 T00061001  RH  095%=      5-min Rain = 0
KEA1 190457Z 33012KT 01/00 A3007 RMK A01 T000600-0  RH  095%=      5-min Rain = 0
KEA1 190458Z 34015KT 01/M00 A3007 RMK A01 T00061001  RH  095%=      5-min Rain = 0
KEA1 190459Z 34019KT 01/00 A3007 RMK A01 T00070000  RH  095%=      5-min Rain = 0
KEA1 190500Z 34018G24KT 01/00 A3007 RMK A01 T000600-0  RH  095%=      5-min Rain = 0
KEA1 190501Z 34019KT 01/00 A3007 RMK A01 T000700-0  RH  095%=      5-min Rain = 0
KEA1 190502Z 34019G25KT 01/M00 A3007 RMK A01 T00071002  RH  094%=      5-min Rain = 0
KEA1 190503Z 34020KT 01/M00 A3007 RMK A01 T00071003  RH  093%=      5-min Rain = 0
KEA1 190504Z 34021G27KT 01/M00 A3007 RMK A01 T00071004  RH  093%=      5-min Rain = 0
KEA1 190505Z 34020G25KT 01/M00 A3007 RMK A01 T00071004  RH  092%=      5-min Rain = 0
KEA1 190506Z 34022KT 01/M01 A3007 RMK A01 T00071005  RH  092%=      5-min Rain = 0
KEA1 190507Z 34023G28KT 01/M01 A3007 RMK A01 T00071005  RH  092%=      5-min Rain = 0
KEA1 190508Z 34024KT 01/M01 A3007 RMK A01 T00071006  RH  091%=      5-min Rain = 0
KEA1 190509Z 34023KT 01/M01 A3007 RMK A01 T00071006  RH  091%=      5-min Rain = 0
KEA1 190510Z 34019KT 01/M01 A3007 RMK A01 T00081006  RH  091%=      5-min Rain = 0
KEA1 190511Z 34020KT 01/M01 A3007 RMK A01 T00081005  RH  091%=      5-min Rain = 0
KEA1 190512Z 34023KT 01/M01 A3008 RMK A01 T00081005  RH  091%=      5-min Rain = 0
KEA1 190513Z 34019KT 01/M01 A3008 RMK A01 T00071006  RH  091%=      5-min Rain = 0
KEA1 190514Z 34019G24KT 01/M01 A3008 RMK A01 T00081005  RH  091%=      5-min Rain = 0
KEA1 190515Z 34021KT 01/M01 A3008 RMK A01 T00081005  RH  091%=      5-min Rain = 0
KEA1 190516Z 33019KT 01/M01 A3008 RMK A01 T00081006  RH  091%=      5-min Rain = 0
KEA1 190517Z 34018G23KT 01/M01 A3008 RMK A01 T00081006  RH  091%=      5-min Rain = 0
KEA1 190518Z 34024KT 01/M01 A3008 RMK A01 T00071006  RH  091%=      5-min Rain = 0
KEA1 190519Z 34021KT 01/M01 A3008 RMK A01 T00071007  RH  090%=      5-min Rain = 0
KEA1 190520Z 34021G29KT 01/M01 A3008 RMK A01 T00071007  RH  090%=      5-min Rain = 0
KEA1 190521Z 34020G25KT 01/M01 A3008 RMK A01 T00081007  RH  090%=      5-min Rain = 0
KEA1 190522Z 34023G28KT 01/M01 A3008 RMK A01 T00071008  RH  090%=      5-min Rain = 0
KEA1 190523Z 34024KT 01/M01 A3008 RMK A01 T00071008  RH  090%=      5-min Rain = 0
KEA1 190524Z 34023KT 01/M01 A3008 RMK A01 T00071009  RH  089%=      5-min Rain = 0
KEA1 190525Z 34020KT 01/M01 A3008 RMK A01 T00071009  RH  089%=      5-min Rain = 0
KEA1 190526Z 34021KT 01/M01 A3008 RMK A01 T00061009  RH  090%=      5-min Rain = 0
KEA1 190527Z 34020KT 01/M01 A3008 RMK A01 T00071009  RH  090%=      5-min Rain = 0
KEA1 190528Z 34018G24KT 01/M01 A3009 RMK A01 T00061009  RH  090%=      5-min Rain = 0
KEA1 190529Z 34019G24KT 01/M01 A3009 RMK A01 T00061009  RH  090%=      5-min Rain = 0
KEA1 190530Z 34020G26KT 01/M01 A3009 RMK A01 T00061009  RH  090%=      5-min Rain = 0
KEA1 190531Z 34019KT 01/M01 A3009 RMK A01 T00061010  RH  090%=      5-min Rain = 0
KEA1 190532Z 34022KT 01/M01 A3009 RMK A01 T00061009  RH  090%=      5-min Rain = 0
KEA1 190533Z 34020KT 01/M01 A3009 RMK A01 T00061009  RH  090%=      5-min Rain = 0
KEA1 190534Z 34020KT 01/M01 A3009 RMK A01 T00061010  RH  089%=      5-min Rain = 0
KEA1 190535Z 34019KT 01/M01 A3009 RMK A01 T00061009  RH  089%=      5-min Rain = 0
KEA1 190536Z 34016KT 01/M01 A3009 RMK A01 T00061010  RH  089%=      5-min Rain = 0
KEA1 190537Z 34018KT 01/M01 A3009 RMK A01 T00061009  RH  089%=      5-min Rain = 0
KEA1 190538Z 34016KT 01/M01 A3009 RMK A01 T00071009  RH  090%=      5-min Rain = 0
KEA1 190539Z 34019G26KT 01/M01 A3009 RMK A01 T00061008  RH  090%=      5-min Rain = 0
KEA1 190540Z 34021G26KT 01/M01 A3009 RMK A01 T00071009  RH  089%=      5-min Rain = 0
KEA1 190541Z 34020KT 01/M01 A3009 RMK A01 T00071009  RH  089%=      5-min Rain = 0
KEA1 190542Z 34017KT 01/M01 A301 RMK A01 T00071009  RH  089%=      5-min Rain = 0
KEA1 190543Z 34021KT 01/M01 A301 RMK A01 T00071009  RH  089%=      5-min Rain = 0
KEA1 190544Z 34019KT 01/M01 A301 RMK A01 T00081009  RH  089%=      5-min Rain = 0
KEA1 190545Z 34020KT 01/M01 A301 RMK A01 T00071009  RH  089%=      5-min Rain = 0
KEA1 190546Z 34019G24KT 01/M01 A301 RMK A01 T00071010  RH  088%=      5-min Rain = 0
KEA1 190547Z 34018KT 01/M01 A301 RMK A01 T00071010  RH  088%=      5-min Rain = 0
KEA1 190548Z 34019KT 01/M01 A301 RMK A01 T00081010  RH  088%=      5-min Rain = 0
KEA1 190549Z 34017KT 01/M01 A301 RMK A01 T00081010  RH  088%=      5-min Rain = 0
KEA1 190550Z 34018KT 01/M01 A301 RMK A01 T00081010  RH  088%=      5-min Rain = 0
KEA1 190551Z 34017KT 01/M01 A301 RMK A01 T00081009  RH  088%=      5-min Rain = 0
KEA1 190552Z 34016KT 01/M01 A301 RMK A01 T00081009  RH  088%=      5-min Rain = 0
KEA1 190553Z 34015KT 01/M01 A301 RMK A01 T00081009  RH  089%=      5-min Rain = 0
KEA1 190554Z 34016KT 01/M01 A301 RMK A01 T00081008  RH  089%=      5-min Rain = 0
KEA1 190555Z 34016KT 01/M01 A301 RMK A01 T00081008  RH  089%=      5-min Rain = 0
KEA1 190556Z 33014KT 01/M01 A301 RMK A01 T00081008  RH  089%=      5-min Rain = 0
KEA1 190557Z 33016KT 01/M01 A301 RMK A01 T00081008  RH  089%=      5-min Rain = 0
KEA1 190558Z 33015G20KT 01/M01 A301 RMK A01 T00091008  RH  089%=      5-min Rain = 0
KEA1 190559Z 33021G26KT 01/M01 A301 RMK A01 T00091008  RH  088%=      5-min Rain = 0

Page generated in 0.083 seconds.